Observation data for Sterling City on 05/24/2020      Previous  Date  Next       Current Mesonet Observations  Soil Data  Daily Summary Page  Observations in Plain Language
KSC1 240500Z 12000KT 23/09 A2987 RMK A01 T02280086  RH  040%=      5-min Rain = 0
KSC1 240501Z 05003KT 23/09 A2987 RMK A01 T02270086  RH  041%=      5-min Rain = 0
KSC1 240502Z 01005KT 23/09 A2987 RMK A01 T02270087  RH  041%=      5-min Rain = 0
KSC1 240503Z 35004KT 23/09 A2986 RMK A01 T02270088  RH  041%=      5-min Rain = 0
KSC1 240504Z 35002KT 23/09 A2986 RMK A01 T02270090  RH  042%=      5-min Rain = 0
KSC1 240505Z 01002KT 23/09 A2986 RMK A01 T02260090  RH  042%=      5-min Rain = 0
KSC1 240506Z 01001KT 23/09 A2986 RMK A01 T02260090  RH  042%=      5-min Rain = 0
KSC1 240507Z 01002KT 23/09 A2986 RMK A01 T02260090  RH  042%=      5-min Rain = 0
KSC1 240508Z 01003KT 23/09 A2986 RMK A01 T02250093  RH  043%=      5-min Rain = 0
KSC1 240509Z 02002KT 23/09 A2986 RMK A01 T02260094  RH  043%=      5-min Rain = 0
KSC1 240510Z 02002KT 23/10 A2987 RMK A01 T02250096  RH  044%=      5-min Rain = 0
KSC1 240511Z 02002KT 23/10 A2987 RMK A01 T02250097  RH  044%=      5-min Rain = 0
KSC1 240512Z 03003KT 22/10 A2987 RMK A01 T02240097  RH  044%=      5-min Rain = 0
KSC1 240513Z 03004KT 22/10 A2987 RMK A01 T02230097  RH  045%=      5-min Rain = 0
KSC1 240514Z 04004KT 22/10 A2987 RMK A01 T02220099  RH  046%=      5-min Rain = 0
KSC1 240515Z 05002KT 22/10 A2987 RMK A01 T02210099  RH  046%=      5-min Rain = 0
KSC1 240516Z 03002KT 22/10 A2987 RMK A01 T02200098  RH  046%=      5-min Rain = 0
KSC1 240517Z 02002KT 22/10 A2987 RMK A01 T02210098  RH  045%=      5-min Rain = 0
KSC1 240518Z 03000KT 22/10 A2987 RMK A01 T02210097  RH  045%=      5-min Rain = 0
KSC1 240519Z 15000KT 22/10 A2987 RMK A01 T02220100  RH  046%=      5-min Rain = 0
KSC1 240520Z 14001KT 22/10 A2987 RMK A01 T02190100  RH  047%=      5-min Rain = 0
KSC1 240521Z 00000KT 22/10 A2987 RMK A01 T02170099  RH  047%=      5-min Rain = 0
KSC1 240522Z 13000KT 22/10 A2988 RMK A01 T02170098  RH  047%=      5-min Rain = 0
KSC1 240523Z 18002KT 22/10 A2988 RMK A01 T02170100  RH  047%=      5-min Rain = 0
KSC1 240524Z 18001KT 22/10 A2988 RMK A01 T02160100  RH  048%=      5-min Rain = 0
KSC1 240525Z 13002KT 21/10 A2988 RMK A01 T02140100  RH  048%=      5-min Rain = 0
KSC1 240526Z 14002KT 21/10 A2988 RMK A01 T02130100  RH  048%=      5-min Rain = 0
KSC1 240527Z 13001KT 21/10 A2988 RMK A01 T02120099  RH  048%=      5-min Rain = 0
KSC1 240528Z 14001KT 21/10 A2988 RMK A01 T02120099  RH  048%=      5-min Rain = 0
KSC1 240529Z 15002KT 21/10 A2988 RMK A01 T02110100  RH  049%=      5-min Rain = 0
KSC1 240530Z 16001KT 21/10 A2988 RMK A01 T02110100  RH  049%=      5-min Rain = 0
KSC1 240531Z 15002KT 21/10 A2988 RMK A01 T02110100  RH  049%=      5-min Rain = 0
KSC1 240532Z 16002KT 21/10 A2988 RMK A01 T02110103  RH  050%=      5-min Rain = 0
KSC1 240533Z 17003KT 21/11 A2988 RMK A01 T02090105  RH  051%=      5-min Rain = 0
KSC1 240534Z 18004KT 21/10 A2989 RMK A01 T02080103  RH  051%=      5-min Rain = 0
KSC1 240535Z 20002KT 21/10 A2988 RMK A01 T02080103  RH  051%=      5-min Rain = 0
KSC1 240536Z 21003KT 21/10 A2988 RMK A01 T02090103  RH  051%=      5-min Rain = 0
KSC1 240537Z 22003KT 21/10 A2988 RMK A01 T02100103  RH  050%=      5-min Rain = 0
KSC1 240538Z 24004KT 21/10 A2988 RMK A01 T02120103  RH  050%=      5-min Rain = 0
KSC1 240539Z 26004KT 21/10 A2988 RMK A01 T02130104  RH  050%=      5-min Rain = 0
KSC1 240540Z 23004KT 21/11 A2988 RMK A01 T02130106  RH  050%=      5-min Rain = 0
KSC1 240541Z 24005KT 21/11 A2988 RMK A01 T02130107  RH  051%=      5-min Rain = 0
KSC1 240542Z 22003KT 21/11 A2988 RMK A01 T02140107  RH  050%=      5-min Rain = 0
KSC1 240543Z 24004KT 21/11 A2988 RMK A01 T02140107  RH  050%=      5-min Rain = 0
KSC1 240544Z 24004KT 21/11 A2988 RMK A01 T02130107  RH  051%=      5-min Rain = 0
KSC1 240545Z 23003KT 21/11 A2989 RMK A01 T02130107  RH  051%=      5-min Rain = 0
KSC1 240546Z 23004KT 21/11 A2988 RMK A01 T02110107  RH  051%=      5-min Rain = 0
KSC1 240547Z 22003KT 21/11 A2989 RMK A01 T02100107  RH  052%=      5-min Rain = 0
KSC1 240548Z 20002KT 21/11 A2989 RMK A01 T02100108  RH  052%=      5-min Rain = 0
KSC1 240549Z 20003KT 21/11 A2989 RMK A01 T02090107  RH  052%=      5-min Rain = 0
KSC1 240550Z 20003KT 21/11 A2989 RMK A01 T02080108  RH  052%=      5-min Rain = 0
KSC1 240551Z 21003KT 21/11 A2989 RMK A01 T02080107  RH  053%=      5-min Rain = 0
KSC1 240552Z 20001KT 21/11 A2989 RMK A01 T02080107  RH  053%=      5-min Rain = 0
KSC1 240553Z 19000KT 21/11 A2988 RMK A01 T02070107  RH  053%=      5-min Rain = 0
KSC1 240554Z 05001KT 21/11 A2988 RMK A01 T02070108  RH  053%=      5-min Rain = 0
KSC1 240555Z 02004KT 21/11 A2988 RMK A01 T02050109  RH  054%=      5-min Rain = 0
KSC1 240556Z 01004KT 20/11 A2988 RMK A01 T02040109  RH  054%=      5-min Rain = 0
KSC1 240557Z 02003KT 20/11 A2988 RMK A01 T02020109  RH  055%=      5-min Rain = 0
KSC1 240558Z 01005KT 20/11 A2988 RMK A01 T02010109  RH  055%=      5-min Rain = 0
KSC1 240559Z 00005KT 20/11 A2988 RMK A01 T02010109  RH  055%=      5-min Rain = 0
KSC1 240600Z 01004KT 20/11 A2988 RMK A01 T02000109  RH  056%=      5-min Rain = 0
KSC1 240601Z 00004KT 20/11 A2988 RMK A01 T01990110  RH  056%=      5-min Rain = 0
KSC1 240602Z 00004KT 20/11 A2988 RMK A01 T01990110  RH  056%=      5-min Rain = 0
KSC1 240603Z 01004KT 20/11 A2988 RMK A01 T01990111  RH  056%=      5-min Rain = 0
KSC1 240604Z 02004KT 20/11 A2988 RMK A01 T01990111  RH  057%=      5-min Rain = 0
KSC1 240605Z 02005KT 20/11 A2988 RMK A01 T01990112  RH  057%=      5-min Rain = 0
KSC1 240606Z 02005KT 20/11 A2988 RMK A01 T01990112  RH  057%=      5-min Rain = 0
KSC1 240607Z 03003KT 20/11 A2988 RMK A01 T01990112  RH  057%=      5-min Rain = 0
KSC1 240608Z 03002KT 20/11 A2988 RMK A01 T01990112  RH  057%=      5-min Rain = 0
KSC1 240609Z 02002KT 20/11 A2988 RMK A01 T01990112  RH  057%=      5-min Rain = 0
KSC1 240610Z 05001KT 20/11 A2988 RMK A01 T01990112  RH  057%=      5-min Rain = 0
KSC1 240611Z 04001KT 20/11 A2987 RMK A01 T01980112  RH  057%=      5-min Rain = 0
KSC1 240612Z 04000KT 20/11 A2987 RMK A01 T01970112  RH  058%=      5-min Rain = 0
KSC1 240613Z 00000KT 20/11 A2988 RMK A01 T01960112  RH  058%=      5-min Rain = 0
KSC1 240614Z 12000KT 20/11 A2987 RMK A01 T01960112  RH  058%=      5-min Rain = 0
KSC1 240615Z 00000KT 20/11 A2987 RMK A01 T01950112  RH  058%=      5-min Rain = 0
KSC1 240616Z 08001KT 20/11 A2987 RMK A01 T01950112  RH  059%=      5-min Rain = 0
KSC1 240617Z 07002KT 20/11 A2987 RMK A01 T01950112  RH  059%=      5-min Rain = 0
KSC1 240618Z 09002KT 19/11 A2987 RMK A01 T01940113  RH  059%=      5-min Rain = 0
KSC1 240619Z 10002KT 19/11 A2987 RMK A01 T01930114  RH  060%=      5-min Rain = 0
KSC1 240620Z 10002KT 19/11 A2987 RMK A01 T01930114  RH  060%=      5-min Rain = 0
KSC1 240621Z 11002KT 19/11 A2987 RMK A01 T01920114  RH  061%=      5-min Rain = 0
KSC1 240622Z 13002KT 19/11 A2987 RMK A01 T01900114  RH  061%=      5-min Rain = 0
KSC1 240623Z 15002KT 19/11 A2987 RMK A01 T01890114  RH  062%=      5-min Rain = 0
KSC1 240624Z 15002KT 19/11 A2987 RMK A01 T01870114  RH  062%=      5-min Rain = 0
KSC1 240625Z 13003KT 19/11 A2987 RMK A01 T01870114  RH  062%=      5-min Rain = 0
KSC1 240626Z 12003KT 19/11 A2987 RMK A01 T01860113  RH  062%=      5-min Rain = 0
KSC1 240627Z 13003KT 19/11 A2987 RMK A01 T01860113  RH  062%=      5-min Rain = 0
KSC1 240628Z 15003KT 19/11 A2987 RMK A01 T01860114  RH  063%=      5-min Rain = 0
KSC1 240629Z 17003KT 19/11 A2987 RMK A01 T01870114  RH  063%=      5-min Rain = 0
KSC1 240630Z 15003KT 19/11 A2987 RMK A01 T01860113  RH  062%=      5-min Rain = 0
KSC1 240631Z 14004KT 19/11 A2987 RMK A01 T01870113  RH  062%=      5-min Rain = 0
KSC1 240632Z 14003KT 19/11 A2986 RMK A01 T01880112  RH  061%=      5-min Rain = 0
KSC1 240633Z 15003KT 19/11 A2986 RMK A01 T01900113  RH  061%=      5-min Rain = 0
KSC1 240634Z 16003KT 19/11 A2986 RMK A01 T01900113  RH  061%=      5-min Rain = 0
KSC1 240635Z 17003KT 19/11 A2986 RMK A01 T01910113  RH  060%=      5-min Rain = 0
KSC1 240636Z 17003KT 19/11 A2986 RMK A01 T01910113  RH  060%=      5-min Rain = 0
KSC1 240637Z 17003KT 19/11 A2987 RMK A01 T01910112  RH  060%=      5-min Rain = 0
KSC1 240638Z 17004KT 19/11 A2987 RMK A01 T01910113  RH  060%=      5-min Rain = 0
KSC1 240639Z 16003KT 19/11 A2987 RMK A01 T01910113  RH  060%=      5-min Rain = 0
KSC1 240640Z 17003KT 19/11 A2987 RMK A01 T01910114  RH  061%=      5-min Rain = 0
KSC1 240641Z 17003KT 19/11 A2987 RMK A01 T01900114  RH  061%=      5-min Rain = 0
KSC1 240642Z 17003KT 19/11 A2987 RMK A01 T01900114  RH  061%=      5-min Rain = 0
KSC1 240643Z 15003KT 19/11 A2987 RMK A01 T01900114  RH  061%=      5-min Rain = 0
KSC1 240644Z 16002KT 19/11 A2987 RMK A01 T01890114  RH  062%=      5-min Rain = 0
KSC1 240645Z 17002KT 19/12 A2987 RMK A01 T01890115  RH  062%=      5-min Rain = 0
KSC1 240646Z 17002KT 19/12 A2987 RMK A01 T01880115  RH  062%=      5-min Rain = 0
KSC1 240647Z 16002KT 19/12 A2987 RMK A01 T01880115  RH  062%=      5-min Rain = 0
KSC1 240648Z 17002KT 19/11 A2987 RMK A01 T01880114  RH  062%=      5-min Rain = 0
KSC1 240649Z 18002KT 19/12 A2986 RMK A01 T01880115  RH  063%=      5-min Rain = 0
KSC1 240650Z 16001KT 19/12 A2986 RMK A01 T01880116  RH  063%=      5-min Rain = 0
KSC1 240651Z 15001KT 19/12 A2986 RMK A01 T01860116  RH  064%=      5-min Rain = 0
KSC1 240652Z 14001KT 19/12 A2986 RMK A01 T01850118  RH  065%=      5-min Rain = 0
KSC1 240653Z 35000KT 18/12 A2986 RMK A01 T01840116  RH  065%=      5-min Rain = 0
KSC1 240654Z 34003KT 18/12 A2986 RMK A01 T01830115  RH  064%=      5-min Rain = 0
KSC1 240655Z 34004KT 18/12 A2986 RMK A01 T01830115  RH  064%=      5-min Rain = 0
KSC1 240656Z 35004KT 18/12 A2986 RMK A01 T01830115  RH  064%=      5-min Rain = 0
KSC1 240657Z 00004KT 18/11 A2986 RMK A01 T01830114  RH  064%=      5-min Rain = 0
KSC1 240658Z 02003KT 18/11 A2987 RMK A01 T01830113  RH  064%=      5-min Rain = 0
KSC1 240659Z 03002KT 18/11 A2987 RMK A01 T01840114  RH  064%=      5-min Rain = 0
KSC1 240700Z 03002KT 18/12 A2987 RMK A01 T01830115  RH  064%=      5-min Rain = 0
KSC1 240701Z 04003KT 18/11 A2987 RMK A01 T01830114  RH  064%=      5-min Rain = 0
KSC1 240702Z 05003KT 18/11 A2987 RMK A01 T01820114  RH  064%=      5-min Rain = 0
KSC1 240703Z 05002KT 18/11 A2987 RMK A01 T01820114  RH  065%=      5-min Rain = 0
KSC1 240704Z 06002KT 18/11 A2988 RMK A01 T01810114  RH  065%=      5-min Rain = 0
KSC1 240705Z 07002KT 18/11 A2988 RMK A01 T01810114  RH  065%=      5-min Rain = 0
KSC1 240706Z 07002KT 18/12 A2988 RMK A01 T01810115  RH  065%=      5-min Rain = 0
KSC1 240707Z 08002KT 18/12 A2988 RMK A01 T01800115  RH  066%=      5-min Rain = 0
KSC1 240708Z 09002KT 18/12 A2988 RMK A01 T01800115  RH  066%=      5-min Rain = 0
KSC1 240709Z 08002KT 18/12 A2988 RMK A01 T01790115  RH  066%=      5-min Rain = 0
KSC1 240710Z 09001KT 18/12 A2988 RMK A01 T01790115  RH  066%=      5-min Rain = 0
KSC1 240711Z 11002KT 18/12 A2988 RMK A01 T01780115  RH  067%=      5-min Rain = 0
KSC1 240712Z 09002KT 18/12 A2988 RMK A01 T01770115  RH  067%=      5-min Rain = 0
KSC1 240713Z 12002KT 18/12 A2988 RMK A01 T01770115  RH  067%=      5-min Rain = 0
KSC1 240714Z 10002KT 18/12 A2988 RMK A01 T01760116  RH  068%=      5-min Rain = 0
KSC1 240715Z 10002KT 18/12 A2988 RMK A01 T01760116  RH  068%=      5-min Rain = 0
KSC1 240716Z 10002KT 18/12 A2987 RMK A01 T01760116  RH  068%=      5-min Rain = 0
KSC1 240717Z 10002KT 18/12 A2987 RMK A01 T01760116  RH  068%=      5-min Rain = 0
KSC1 240718Z 10002KT 18/12 A2987 RMK A01 T01760116  RH  068%=      5-min Rain = 0
KSC1 240719Z 11003KT 18/12 A2987 RMK A01 T01760116  RH  068%=      5-min Rain = 0
KSC1 240720Z 13003KT 18/12 A2988 RMK A01 T01770116  RH  068%=      5-min Rain = 0
KSC1 240721Z 13003KT 18/12 A2988 RMK A01 T01770117  RH  068%=      5-min Rain = 0
KSC1 240722Z 14004KT 18/12 A2988 RMK A01 T01780117  RH  068%=      5-min Rain = 0
KSC1 240723Z 14004KT 18/12 A2988 RMK A01 T01780117  RH  067%=      5-min Rain = 0
KSC1 240724Z 14006KT 18/12 A2988 RMK A01 T01800119  RH  067%=      5-min Rain = 0
KSC1 240725Z 14006KT 18/12 A2987 RMK A01 T01830122  RH  067%=      5-min Rain = 0
KSC1 240726Z 13006KT 19/12 A2987 RMK A01 T01880123  RH  066%=      5-min Rain = 0
KSC1 240727Z 13008KT 19/12 A2987 RMK A01 T01940124  RH  064%=      5-min Rain = 0
KSC1 240728Z 14008KT 20/12 A2987 RMK A01 T01990124  RH  062%=      5-min Rain = 0
KSC1 240729Z 13007KT 20/12 A2987 RMK A01 T02030123  RH  060%=      5-min Rain = 0
KSC1 240730Z 14007KT 21/12 A2987 RMK A01 T02060123  RH  059%=      5-min Rain = 0
KSC1 240731Z 14007KT 21/12 A2987 RMK A01 T02070123  RH  058%=      5-min Rain = 0
KSC1 240732Z 14006KT 21/12 A2987 RMK A01 T02070122  RH  058%=      5-min Rain = 0
KSC1 240733Z 14007KT 21/12 A2987 RMK A01 T02080122  RH  058%=      5-min Rain = 0
KSC1 240734Z 14007KT 21/12 A2987 RMK A01 T02090122  RH  057%=      5-min Rain = 0
KSC1 240735Z 14008KT 21/12 A2987 RMK A01 T02090121  RH  057%=      5-min Rain = 0
KSC1 240736Z 14007KT 21/12 A2987 RMK A01 T02090121  RH  057%=      5-min Rain = 0
KSC1 240737Z 14006KT 21/12 A2987 RMK A01 T02100121  RH  057%=      5-min Rain = 0
KSC1 240738Z 14008KT 21/12 A2987 RMK A01 T02100121  RH  057%=      5-min Rain = 0
KSC1 240739Z 14008KT 21/12 A2987 RMK A01 T02090121  RH  057%=      5-min Rain = 0
KSC1 240740Z 14008KT 21/12 A2987 RMK A01 T02090121  RH  057%=      5-min Rain = 0
KSC1 240741Z 15007KT 21/12 A2987 RMK A01 T02090120  RH  057%=      5-min Rain = 0
KSC1 240742Z 15007KT 21/12 A2987 RMK A01 T02090120  RH  057%=      5-min Rain = 0
KSC1 240743Z 15006KT 21/12 A2987 RMK A01 T02090120  RH  057%=      5-min Rain = 0
KSC1 240744Z 15007KT 21/12 A2987 RMK A01 T02090120  RH  056%=      5-min Rain = 0
KSC1 240745Z 15008KT 21/12 A2987 RMK A01 T02100119  RH  056%=      5-min Rain = 0
KSC1 240746Z 15007KT 21/12 A2987 RMK A01 T02100118  RH  056%=      5-min Rain = 0
KSC1 240747Z 15006KT 21/12 A2987 RMK A01 T02110118  RH  055%=      5-min Rain = 0
KSC1 240748Z 15006KT 21/12 A2987 RMK A01 T02110118  RH  055%=      5-min Rain = 0
KSC1 240749Z 15007KT 21/12 A2987 RMK A01 T02110118  RH  055%=      5-min Rain = 0
KSC1 240750Z 15006KT 21/12 A2987 RMK A01 T02110117  RH  055%=      5-min Rain = 0
KSC1 240751Z 15006KT 21/12 A2987 RMK A01 T02110117  RH  055%=      5-min Rain = 0
KSC1 240752Z 14005KT 21/12 A2987 RMK A01 T02110117  RH  055%=      5-min Rain = 0
KSC1 240753Z 14006KT 21/12 A2987 RMK A01 T02110117  RH  055%=      5-min Rain = 0
KSC1 240754Z 14005KT 21/12 A2987 RMK A01 T02110117  RH  055%=      5-min Rain = 0
KSC1 240755Z 14005KT 21/12 A2987 RMK A01 T02110117  RH  055%=      5-min Rain = 0
KSC1 240756Z 14005KT 21/12 A2987 RMK A01 T02110117  RH  055%=      5-min Rain = 0
KSC1 240757Z 13004KT 21/12 A2987 RMK A01 T02100117  RH  055%=      5-min Rain = 0
KSC1 240758Z 14005KT 21/12 A2987 RMK A01 T02100116  RH  055%=      5-min Rain = 0
KSC1 240759Z 13005KT 21/12 A2987 RMK A01 T02090117  RH  055%=      5-min Rain = 0
KSC1 240800Z 13005KT 21/12 A2987 RMK A01 T02090117  RH  055%=      5-min Rain = 0
KSC1 240801Z 13005KT 21/12 A2987 RMK A01 T02080117  RH  056%=      5-min Rain = 0
KSC1 240802Z 11004KT 21/12 A2986 RMK A01 T02080117  RH  056%=      5-min Rain = 0
KSC1 240803Z 11004KT 21/12 A2986 RMK A01 T02070117  RH  056%=      5-min Rain = 0
KSC1 240804Z 11004KT 21/12 A2987 RMK A01 T02050116  RH  057%=      5-min Rain = 0
KSC1 240805Z 11004KT 20/12 A2987 RMK A01 T02040117  RH  057%=      5-min Rain = 0
KSC1 240806Z 11004KT 20/12 A2987 RMK A01 T02020116  RH  058%=      5-min Rain = 0
KSC1 240807Z 10004KT 20/12 A2987 RMK A01 T02010116  RH  058%=      5-min Rain = 0
KSC1 240808Z 10004KT 20/12 A2987 RMK A01 T01990116  RH  059%=      5-min Rain = 0
KSC1 240809Z 10004KT 20/12 A2987 RMK A01 T01990116  RH  059%=      5-min Rain = 0
KSC1 240810Z 10004KT 20/12 A2987 RMK A01 T01990117  RH  059%=      5-min Rain = 0
KSC1 240811Z 10005KT 20/12 A2987 RMK A01 T01980116  RH  059%=      5-min Rain = 0
KSC1 240812Z 10005KT 20/12 A2987 RMK A01 T01980116  RH  059%=      5-min Rain = 0
KSC1 240813Z 11005KT 20/12 A2987 RMK A01 T01980116  RH  059%=      5-min Rain = 0
KSC1 240814Z 11005KT 20/12 A2987 RMK A01 T01980116  RH  059%=      5-min Rain = 0
KSC1 240815Z 11005KT 20/12 A2987 RMK A01 T01970115  RH  059%=      5-min Rain = 0
KSC1 240816Z 11005KT 20/12 A2987 RMK A01 T01960115  RH  059%=      5-min Rain = 0
KSC1 240817Z 11004KT 20/12 A2987 RMK A01 T01970115  RH  059%=      5-min Rain = 0
KSC1 240818Z 09003KT 20/12 A2987 RMK A01 T01970115  RH  059%=      5-min Rain = 0
KSC1 240819Z 09004KT 20/12 A2987 RMK A01 T01970115  RH  059%=      5-min Rain = 0
KSC1 240820Z 09005KT 20/12 A2986 RMK A01 T01970115  RH  059%=      5-min Rain = 0
KSC1 240821Z 10005KT 20/11 A2986 RMK A01 T01960114  RH  059%=      5-min Rain = 0
KSC1 240822Z 10005KT 20/11 A2987 RMK A01 T01950114  RH  059%=      5-min Rain = 0
KSC1 240823Z 11005KT 20/11 A2987 RMK A01 T01950114  RH  060%=      5-min Rain = 0
KSC1 240824Z 11006KT 19/11 A2987 RMK A01 T01940114  RH  060%=      5-min Rain = 0
KSC1 240825Z 10006KT 19/11 A2986 RMK A01 T01930114  RH  060%=      5-min Rain = 0
KSC1 240826Z 10006KT 19/11 A2986 RMK A01 T01940114  RH  060%=      5-min Rain = 0
KSC1 240827Z 10005KT 19/11 A2986 RMK A01 T01940114  RH  060%=      5-min Rain = 0
KSC1 240828Z 11006KT 20/11 A2986 RMK A01 T01950114  RH  060%=      5-min Rain = 0
KSC1 240829Z 11006KT 20/11 A2986 RMK A01 T01950114  RH  059%=      5-min Rain = 0
KSC1 240830Z 12007KT 20/11 A2986 RMK A01 T01950114  RH  059%=      5-min Rain = 0
KSC1 240831Z 12006KT 20/11 A2986 RMK A01 T01950114  RH  059%=      5-min Rain = 0
KSC1 240832Z 12007KT 20/11 A2986 RMK A01 T01950114  RH  059%=      5-min Rain = 0
KSC1 240833Z 12007KT 20/11 A2986 RMK A01 T01960114  RH  059%=      5-min Rain = 0
KSC1 240834Z 12006KT 20/11 A2986 RMK A01 T01960113  RH  059%=      5-min Rain = 0
KSC1 240835Z 12006KT 20/11 A2986 RMK A01 T01960113  RH  059%=      5-min Rain = 0
KSC1 240836Z 12004KT 20/11 A2986 RMK A01 T01960113  RH  058%=      5-min Rain = 0
KSC1 240837Z 12006KT 20/11 A2986 RMK A01 T01960113  RH  058%=      5-min Rain = 0
KSC1 240838Z 13005KT 20/11 A2986 RMK A01 T01970112  RH  058%=      5-min Rain = 0
KSC1 240839Z 13005KT 20/11 A2986 RMK A01 T01970112  RH  058%=      5-min Rain = 0
KSC1 240840Z 13006KT 20/11 A2986 RMK A01 T01970112  RH  058%=      5-min Rain = 0
KSC1 240841Z 13005KT 20/11 A2986 RMK A01 T01970112  RH  058%=      5-min Rain = 0
KSC1 240842Z 13005KT 20/11 A2986 RMK A01 T01970112  RH  058%=      5-min Rain = 0
KSC1 240843Z 12006KT 20/11 A2986 RMK A01 T01970112  RH  058%=      5-min Rain = 0
KSC1 240844Z 12005KT 20/11 A2986 RMK A01 T01980112  RH  058%=      5-min Rain = 0
KSC1 240845Z 13005KT 20/11 A2986 RMK A01 T01970112  RH  058%=      5-min Rain = 0
KSC1 240846Z 12005KT 20/11 A2986 RMK A01 T01970112  RH  058%=      5-min Rain = 0
KSC1 240847Z 11005KT 20/11 A2985 RMK A01 T01960111  RH  058%=      5-min Rain = 0
KSC1 240848Z 11005KT 20/11 A2985 RMK A01 T01950111  RH  058%=      5-min Rain = 0
KSC1 240849Z 12005KT 19/11 A2985 RMK A01 T01940111  RH  058%=      5-min Rain = 0
KSC1 240850Z 12005KT 19/11 A2985 RMK A01 T01930111  RH  059%=      5-min Rain = 0
KSC1 240851Z 12005KT 19/11 A2985 RMK A01 T01930111  RH  059%=      5-min Rain = 0
KSC1 240852Z 12005KT 19/11 A2985 RMK A01 T01930111  RH  059%=      5-min Rain = 0
KSC1 240853Z 11005KT 19/11 A2985 RMK A01 T01930111  RH  059%=      5-min Rain = 0
KSC1 240854Z 11006KT 19/11 A2985 RMK A01 T01940111  RH  059%=      5-min Rain = 0
KSC1 240855Z 12007KT 19/11 A2985 RMK A01 T01940111  RH  058%=      5-min Rain = 0
KSC1 240856Z 12008KT 20/11 A2985 RMK A01 T01950111  RH  058%=      5-min Rain = 0
KSC1 240857Z 12007KT 20/11 A2985 RMK A01 T01960111  RH  058%=      5-min Rain = 0
KSC1 240858Z 12006KT 20/11 A2985 RMK A01 T01970111  RH  058%=      5-min Rain = 0
KSC1 240859Z 11008KT 20/11 A2984 RMK A01 T01970111  RH  057%=      5-min Rain = 0
KSC1 240900Z 11009KT 20/11 A2984 RMK A01 T01980111  RH  057%=      5-min Rain = 0
KSC1 240901Z 12009KT 20/11 A2985 RMK A01 T01980111  RH  057%=      5-min Rain = 0
KSC1 240902Z 11007KT 20/11 A2985 RMK A01 T02000111  RH  057%=      5-min Rain = 0
KSC1 240903Z 12009KT 20/11 A2985 RMK A01 T02000111  RH  056%=      5-min Rain = 0
KSC1 240904Z 12009KT 20/11 A2985 RMK A01 T02000111  RH  056%=      5-min Rain = 0
KSC1 240905Z 12008KT 20/11 A2985 RMK A01 T02000110  RH  056%=      5-min Rain = 0
KSC1 240906Z 12007KT 20/11 A2985 RMK A01 T02000110  RH  056%=      5-min Rain = 0
KSC1 240907Z 12010KT 20/11 A2984 RMK A01 T02000110  RH  056%=      5-min Rain = 0
KSC1 240908Z 12009KT 20/11 A2985 RMK A01 T02010110  RH  056%=      5-min Rain = 0
KSC1 240909Z 12009KT 20/11 A2985 RMK A01 T02010110  RH  056%=      5-min Rain = 0
KSC1 240910Z 13008KT 20/11 A2985 RMK A01 T02010110  RH  056%=      5-min Rain = 0
KSC1 240911Z 12010KT 20/11 A2985 RMK A01 T02020110  RH  055%=      5-min Rain = 0
KSC1 240912Z 13008KT 20/11 A2985 RMK A01 T02020110  RH  055%=      5-min Rain = 0
KSC1 240913Z 12008KT 20/11 A2985 RMK A01 T02020110  RH  055%=      5-min Rain = 0
KSC1 240914Z 13008KT 20/11 A2985 RMK A01 T02020110  RH  056%=      5-min Rain = 0
KSC1 240915Z 13007KT 20/11 A2985 RMK A01 T02010110  RH  056%=      5-min Rain = 0
KSC1 240916Z 13008KT 20/11 A2985 RMK A01 T02010110  RH  056%=      5-min Rain = 0
KSC1 240917Z 13006KT 20/11 A2985 RMK A01 T02010110  RH  056%=      5-min Rain = 0
KSC1 240918Z 13007KT 20/11 A2985 RMK A01 T02000110  RH  056%=      5-min Rain = 0
KSC1 240919Z 13006KT 20/11 A2985 RMK A01 T01990110  RH  056%=      5-min Rain = 0
KSC1 240920Z 14006KT 20/11 A2986 RMK A01 T01990110  RH  057%=      5-min Rain = 0
KSC1 240921Z 14006KT 20/11 A2986 RMK A01 T01980110  RH  057%=      5-min Rain = 0
KSC1 240922Z 14006KT 20/11 A2986 RMK A01 T01970111  RH  057%=      5-min Rain = 0
KSC1 240923Z 13005KT 20/11 A2986 RMK A01 T01970111  RH  057%=      5-min Rain = 0
KSC1 240924Z 13004KT 20/11 A2986 RMK A01 T01960111  RH  058%=      5-min Rain = 0
KSC1 240925Z 13005KT 20/11 A2986 RMK A01 T01960110  RH  058%=      5-min Rain = 0
KSC1 240926Z 14004KT 20/11 A2986 RMK A01 T01950110  RH  058%=      5-min Rain = 0
KSC1 240927Z 13005KT 20/11 A2986 RMK A01 T01950111  RH  058%=      5-min Rain = 0
KSC1 240928Z 13005KT 19/11 A2986 RMK A01 T01940110  RH  058%=      5-min Rain = 0
KSC1 240929Z 13005KT 19/11 A2986 RMK A01 T01940110  RH  058%=      5-min Rain = 0
KSC1 240930Z 13006KT 19/11 A2986 RMK A01 T01930110  RH  059%=      5-min Rain = 0
KSC1 240931Z 12006KT 19/11 A2986 RMK A01 T01930111  RH  059%=      5-min Rain = 0
KSC1 240932Z 13005KT 19/11 A2986 RMK A01 T01920110  RH  059%=      5-min Rain = 0
KSC1 240933Z 13006KT 19/11 A2985 RMK A01 T01910110  RH  059%=      5-min Rain = 0
KSC1 240934Z 13005KT 19/11 A2985 RMK A01 T01900110  RH  060%=      5-min Rain = 0
KSC1 240935Z 13006KT 19/11 A2985 RMK A01 T01890110  RH  060%=      5-min Rain = 0
KSC1 240936Z 13006KT 19/11 A2985 RMK A01 T01890111  RH  060%=      5-min Rain = 0
KSC1 240937Z 13006KT 19/11 A2985 RMK A01 T01890110  RH  060%=      5-min Rain = 0
KSC1 240938Z 13007KT 19/11 A2985 RMK A01 T01890111  RH  060%=      5-min Rain = 0
KSC1 240939Z 13007KT 19/11 A2985 RMK A01 T01890111  RH  060%=      5-min Rain = 0
KSC1 240940Z 14006KT 19/11 A2985 RMK A01 T01890111  RH  060%=      5-min Rain = 0
KSC1 240941Z 13006KT 19/11 A2985 RMK A01 T01900111  RH  060%=      5-min Rain = 0
KSC1 240942Z 14006KT 19/11 A2985 RMK A01 T01900111  RH  060%=      5-min Rain = 0
KSC1 240943Z 14007KT 19/11 A2985 RMK A01 T01900111  RH  060%=      5-min Rain = 0
KSC1 240944Z 14005KT 19/11 A2985 RMK A01 T01900111  RH  060%=      5-min Rain = 0
KSC1 240945Z 15006KT 19/11 A2985 RMK A01 T01910111  RH  060%=      5-min Rain = 0
KSC1 240946Z 15005KT 19/11 A2985 RMK A01 T01910111  RH  060%=      5-min Rain = 0
KSC1 240947Z 14007KT 19/11 A2985 RMK A01 T01920111  RH  059%=      5-min Rain = 0
KSC1 240948Z 15008KT 19/11 A2985 RMK A01 T01940112  RH  059%=      5-min Rain = 0
KSC1 240949Z 14008KT 20/11 A2985 RMK A01 T01950112  RH  058%=      5-min Rain = 0
KSC1 240950Z 14007KT 20/11 A2985 RMK A01 T01970112  RH  058%=      5-min Rain = 0
KSC1 240951Z 14007KT 20/11 A2985 RMK A01 T01970112  RH  058%=      5-min Rain = 0
KSC1 240952Z 15006KT 20/11 A2985 RMK A01 T01980111  RH  057%=      5-min Rain = 0
KSC1 240953Z 14006KT 20/11 A2985 RMK A01 T01980112  RH  057%=      5-min Rain = 0
KSC1 240954Z 14006KT 20/11 A2985 RMK A01 T01980112  RH  057%=      5-min Rain = 0
KSC1 240955Z 15009KT 20/11 A2985 RMK A01 T01980111  RH  057%=      5-min Rain = 0
KSC1 240956Z 15008KT 20/11 A2985 RMK A01 T02000112  RH  057%=      5-min Rain = 0
KSC1 240957Z 14006KT 20/11 A2985 RMK A01 T02000111  RH  057%=      5-min Rain = 0
KSC1 240958Z 14005KT 20/11 A2985 RMK A01 T02000112  RH  057%=      5-min Rain = 0
KSC1 240959Z 14005KT 20/11 A2985 RMK A01 T01990112  RH  057%=      5-min Rain = 0
KSC1 241000Z 14004KT 20/11 A2985 RMK A01 T01980111  RH  057%=      5-min Rain = 0
KSC1 241001Z 14005KT 20/11 A2985 RMK A01 T01980112  RH  057%=      5-min Rain = 0
KSC1 241002Z 13006KT 20/11 A2985 RMK A01 T01980112  RH  058%=      5-min Rain = 0
KSC1 241003Z 13008KT 20/11 A2985 RMK A01 T01970111  RH  058%=      5-min Rain = 0
KSC1 241004Z 13007KT 20/11 A2985 RMK A01 T01970112  RH  058%=      5-min Rain = 0
KSC1 241005Z 13006KT 20/11 A2985 RMK A01 T01970112  RH  058%=      5-min Rain = 0
KSC1 241006Z 13005KT 20/11 A2985 RMK A01 T01980112  RH  058%=      5-min Rain = 0
KSC1 241007Z 12005KT 20/11 A2985 RMK A01 T01970112  RH  058%=      5-min Rain = 0
KSC1 241008Z 11005KT 20/11 A2985 RMK A01 T01960112  RH  058%=      5-min Rain = 0
KSC1 241009Z 12004KT 19/11 A2985 RMK A01 T01940111  RH  059%=      5-min Rain = 0
KSC1 241010Z 12004KT 19/11 A2985 RMK A01 T01930111  RH  059%=      5-min Rain = 0
KSC1 241011Z 14004KT 19/11 A2986 RMK A01 T01910111  RH  060%=      5-min Rain = 0
KSC1 241012Z 13004KT 19/11 A2986 RMK A01 T01900111  RH  060%=      5-min Rain = 0
KSC1 241013Z 13004KT 19/11 A2986 RMK A01 T01890111  RH  060%=      5-min Rain = 0
KSC1 241014Z 14003KT 19/11 A2986 RMK A01 T01890112  RH  061%=      5-min Rain = 0
KSC1 241015Z 14006KT 19/11 A2986 RMK A01 T01880111  RH  061%=      5-min Rain = 0
KSC1 241016Z 15006KT 19/11 A2986 RMK A01 T01880112  RH  061%=      5-min Rain = 0
KSC1 241017Z 14007KT 19/11 A2986 RMK A01 T01900112  RH  061%=      5-min Rain = 0
KSC1 241018Z 15006KT 19/11 A2986 RMK A01 T01910112  RH  060%=      5-min Rain = 0
KSC1 241019Z 14007KT 19/11 A2986 RMK A01 T01920112  RH  060%=      5-min Rain = 0
KSC1 241020Z 14006KT 19/11 A2986 RMK A01 T01920112  RH  060%=      5-min Rain = 0
KSC1 241021Z 14008KT 19/11 A2986 RMK A01 T01920112  RH  060%=      5-min Rain = 0
KSC1 241022Z 14007KT 19/11 A2986 RMK A01 T01930112  RH  060%=      5-min Rain = 0
KSC1 241023Z 14008KT 19/11 A2986 RMK A01 T01930112  RH  059%=      5-min Rain = 0
KSC1 241024Z 14007KT 19/11 A2986 RMK A01 T01940113  RH  059%=      5-min Rain = 0
KSC1 241025Z 14008KT 19/11 A2986 RMK A01 T01940112  RH  059%=      5-min Rain = 0
KSC1 241026Z 14007KT 19/11 A2986 RMK A01 T01940112  RH  059%=      5-min Rain = 0
KSC1 241027Z 14006KT 19/11 A2986 RMK A01 T01940113  RH  059%=      5-min Rain = 0
KSC1 241028Z 14008KT 19/11 A2986 RMK A01 T01940113  RH  059%=      5-min Rain = 0
KSC1 241029Z 14008KT 19/11 A2986 RMK A01 T01940112  RH  059%=      5-min Rain = 0
KSC1 241030Z 14006KT 19/11 A2985 RMK A01 T01940113  RH  059%=      5-min Rain = 0
KSC1 241031Z 14007KT 19/11 A2985 RMK A01 T01940113  RH  059%=      5-min Rain = 0
KSC1 241032Z 15007KT 19/11 A2985 RMK A01 T01940113  RH  059%=      5-min Rain = 0
KSC1 241033Z 15007KT 19/11 A2985 RMK A01 T01940113  RH  059%=      5-min Rain = 0
KSC1 241034Z 15008KT 19/11 A2985 RMK A01 T01940113  RH  060%=      5-min Rain = 0
KSC1 241035Z 15007KT 19/11 A2985 RMK A01 T01940113  RH  060%=      5-min Rain = 0
KSC1 241036Z 15007KT 19/11 A2985 RMK A01 T01940113  RH  060%=      5-min Rain = 0
KSC1 241037Z 15008KT 19/11 A2985 RMK A01 T01940113  RH  060%=      5-min Rain = 0
KSC1 241038Z 15006KT 19/11 A2985 RMK A01 T01940113  RH  060%=      5-min Rain = 0
KSC1 241039Z 15006KT 19/11 A2985 RMK A01 T01940114  RH  060%=      5-min Rain = 0
KSC1 241040Z 16007KT 19/11 A2986 RMK A01 T01940114  RH  060%=      5-min Rain = 0
KSC1 241041Z 16008KT 19/11 A2986 RMK A01 T01930113  RH  060%=      5-min Rain = 0
KSC1 241042Z 16006KT 19/11 A2986 RMK A01 T01930114  RH  060%=      5-min Rain = 0
KSC1 241043Z 16007KT 19/11 A2986 RMK A01 T01930114  RH  060%=      5-min Rain = 0
KSC1 241044Z 16005KT 19/11 A2986 RMK A01 T01930114  RH  060%=      5-min Rain = 0
KSC1 241045Z 16006KT 19/11 A2986 RMK A01 T01920113  RH  060%=      5-min Rain = 0
KSC1 241046Z 16004KT 19/11 A2986 RMK A01 T01920114  RH  061%=      5-min Rain = 0
KSC1 241047Z 16006KT 19/11 A2986 RMK A01 T01910113  RH  061%=      5-min Rain = 0
KSC1 241048Z 16006KT 19/11 A2985 RMK A01 T01900113  RH  061%=      5-min Rain = 0
KSC1 241049Z 16005KT 19/11 A2986 RMK A01 T01900114  RH  061%=      5-min Rain = 0
KSC1 241050Z 16006KT 19/11 A2986 RMK A01 T01890114  RH  061%=      5-min Rain = 0
KSC1 241051Z 16007KT 19/11 A2986 RMK A01 T01890114  RH  062%=      5-min Rain = 0
KSC1 241052Z 15006KT 19/11 A2986 RMK A01 T01890114  RH  062%=      5-min Rain = 0
KSC1 241053Z 16006KT 19/12 A2986 RMK A01 T01890115  RH  062%=      5-min Rain = 0
KSC1 241054Z 16007KT 19/11 A2986 RMK A01 T01880114  RH  062%=      5-min Rain = 0
KSC1 241055Z 16007KT 19/12 A2986 RMK A01 T01880115  RH  062%=      5-min Rain = 0
KSC1 241056Z 16007KT 19/12 A2986 RMK A01 T01880115  RH  062%=      5-min Rain = 0
KSC1 241057Z 16008KT 19/12 A2986 RMK A01 T01880115  RH  062%=      5-min Rain = 0
KSC1 241058Z 17007KT 19/12 A2986 RMK A01 T01880115  RH  062%=      5-min Rain = 0
KSC1 241059Z 17007KT 19/12 A2986 RMK A01 T01880115  RH  063%=      5-min Rain = 0
KSC1 241100Z 16008KT 19/12 A2987 RMK A01 T01880115  RH  062%=      5-min Rain = 0
KSC1 241101Z 17006KT 19/12 A2987 RMK A01 T01880116  RH  063%=      5-min Rain = 0
KSC1 241102Z 16006KT 19/12 A2987 RMK A01 T01880116  RH  063%=      5-min Rain = 0
KSC1 241103Z 17006KT 19/12 A2987 RMK A01 T01880116  RH  063%=      5-min Rain = 0
KSC1 241104Z 17006KT 19/12 A2987 RMK A01 T01870116  RH  063%=      5-min Rain = 0
KSC1 241105Z 16008KT 19/12 A2987 RMK A01 T01870116  RH  063%=      5-min Rain = 0
KSC1 241106Z 17007KT 19/12 A2987 RMK A01 T01870116  RH  063%=      5-min Rain = 0
KSC1 241107Z 17008KT 19/12 A2987 RMK A01 T01870116  RH  063%=      5-min Rain = 0
KSC1 241108Z 17007KT 19/12 A2987 RMK A01 T01870116  RH  063%=      5-min Rain = 0
KSC1 241109Z 17006KT 19/12 A2987 RMK A01 T01870117  RH  064%=      5-min Rain = 0
KSC1 241110Z 16006KT 19/12 A2987 RMK A01 T01860116  RH  064%=      5-min Rain = 0
KSC1 241111Z 17007KT 19/12 A2987 RMK A01 T01850117  RH  064%=      5-min Rain = 0
KSC1 241112Z 17007KT 19/12 A2987 RMK A01 T01850117  RH  065%=      5-min Rain = 0
KSC1 241113Z 17008KT 19/12 A2987 RMK A01 T01850117  RH  065%=      5-min Rain = 0
KSC1 241114Z 17007KT 19/12 A2987 RMK A01 T01850118  RH  065%=      5-min Rain = 0
KSC1 241115Z 16008KT 19/12 A2987 RMK A01 T01850117  RH  065%=      5-min Rain = 0
KSC1 241116Z 16008KT 19/12 A2987 RMK A01 T01850117  RH  065%=      5-min Rain = 0
KSC1 241117Z 16007KT 19/12 A2987 RMK A01 T01850118  RH  065%=      5-min Rain = 0
KSC1 241118Z 16006KT 19/12 A2987 RMK A01 T01850118  RH  065%=      5-min Rain = 0
KSC1 241119Z 17006KT 19/12 A2987 RMK A01 T01850118  RH  065%=      5-min Rain = 0
KSC1 241120Z 17006KT 19/12 A2987 RMK A01 T01850118  RH  065%=      5-min Rain = 0
KSC1 241121Z 17006KT 18/12 A2988 RMK A01 T01830118  RH  065%=      5-min Rain = 0
KSC1 241122Z 16007KT 18/12 A2988 RMK A01 T01830118  RH  066%=      5-min Rain = 0
KSC1 241123Z 17009KT 18/12 A2988 RMK A01 T01830118  RH  066%=      5-min Rain = 0
KSC1 241124Z 16008KT 18/12 A2988 RMK A01 T01830118  RH  066%=      5-min Rain = 0
KSC1 241125Z 17008KT 18/12 A2988 RMK A01 T01830118  RH  066%=      5-min Rain = 0
KSC1 241126Z 16007KT 18/12 A2988 RMK A01 T01840119  RH  066%=      5-min Rain = 0
KSC1 241127Z 17009KT 18/12 A2988 RMK A01 T01840119  RH  066%=      5-min Rain = 0
KSC1 241128Z 16007KT 18/12 A2988 RMK A01 T01840119  RH  066%=      5-min Rain = 0
KSC1 241129Z 16008KT 18/12 A2988 RMK A01 T01840119  RH  066%=      5-min Rain = 0
KSC1 241130Z 16006KT 18/12 A2988 RMK A01 T01840119  RH  066%=      5-min Rain = 0
KSC1 241131Z 16007KT 18/12 A2988 RMK A01 T01830119  RH  066%=      5-min Rain = 0
KSC1 241132Z 17007KT 18/12 A2988 RMK A01 T01830120  RH  066%=      5-min Rain = 0
KSC1 241133Z 16007KT 18/12 A2988 RMK A01 T01830120  RH  067%=      5-min Rain = 0
KSC1 241134Z 15007KT 18/12 A2988 RMK A01 T01820120  RH  067%=      5-min Rain = 0
KSC1 241135Z 16008KT 18/12 A2988 RMK A01 T01820120  RH  067%=      5-min Rain = 0
KSC1 241136Z 15007KT 18/12 A2988 RMK A01 T01820120  RH  067%=      5-min Rain = 0
KSC1 241137Z 16006KT 18/12 A2988 RMK A01 T01820120  RH  067%=      5-min Rain = 0
KSC1 241138Z 16008KT 18/12 A2988 RMK A01 T01820121  RH  067%=      5-min Rain = 0
KSC1 241139Z 16008KT 18/12 A2988 RMK A01 T01820121  RH  068%=      5-min Rain = 0
KSC1 241140Z 16008KT 18/12 A2988 RMK A01 T01820121  RH  068%=      5-min Rain = 0
KSC1 241141Z 16007KT 18/12 A2988 RMK A01 T01820121  RH  068%=      5-min Rain = 0
KSC1 241142Z 15007KT 18/12 A2988 RMK A01 T01820121  RH  068%=      5-min Rain = 0
KSC1 241143Z 15006KT 18/12 A2988 RMK A01 T01820121  RH  068%=      5-min Rain = 0
KSC1 241144Z 15007KT 18/12 A2988 RMK A01 T01820121  RH  068%=      5-min Rain = 0
KSC1 241145Z 15006KT 18/12 A2988 RMK A01 T01820122  RH  068%=      5-min Rain = 0
KSC1 241146Z 15007KT 18/12 A2988 RMK A01 T01820122  RH  068%=      5-min Rain = 0
KSC1 241147Z 15006KT 18/12 A2988 RMK A01 T01820122  RH  068%=      5-min Rain = 0
KSC1 241148Z 15006KT 18/12 A2988 RMK A01 T01820122  RH  068%=      5-min Rain = 0
KSC1 241149Z 15006KT 18/12 A2988 RMK A01 T01820122  RH  068%=      5-min Rain = 0
KSC1 241150Z 15006KT 18/12 A2988 RMK A01 T01820123  RH  068%=      5-min Rain = 0
KSC1 241151Z 15006KT 18/12 A2988 RMK A01 T01820123  RH  068%=      5-min Rain = 0
KSC1 241152Z 16006KT 18/12 A2988 RMK A01 T01810123  RH  069%=      5-min Rain = 0
KSC1 241153Z 15006KT 18/12 A2988 RMK A01 T01810123  RH  069%=      5-min Rain = 0
KSC1 241154Z 15006KT 18/12 A2988 RMK A01 T01820124  RH  069%=      5-min Rain = 0
KSC1 241155Z 15006KT 18/12 A2988 RMK A01 T01810124  RH  069%=      5-min Rain = 0
KSC1 241156Z 15006KT 18/12 A2988 RMK A01 T01810124  RH  069%=      5-min Rain = 0
KSC1 241157Z 16006KT 18/12 A2988 RMK A01 T01820124  RH  069%=      5-min Rain = 0
KSC1 241158Z 15007KT 18/13 A2988 RMK A01 T01820125  RH  069%=      5-min Rain = 0
KSC1 241159Z 16006KT 18/12 A2988 RMK A01 T01820124  RH  069%=      5-min Rain = 0
KSC1 241200Z 16005KT 18/13 A2989 RMK A01 T01820125  RH  069%=      5-min Rain = 0
KSC1 241201Z 16008KT 18/13 A2989 RMK A01 T01820125  RH  069%=      5-min Rain = 0
KSC1 241202Z 16007KT 18/13 A2989 RMK A01 T01820125  RH  069%=      5-min Rain = 0
KSC1 241203Z 16006KT 18/13 A2989 RMK A01 T01830126  RH  069%=      5-min Rain = 0
KSC1 241204Z 16007KT 18/13 A2989 RMK A01 T01830126  RH  069%=      5-min Rain = 0
KSC1 241205Z 16006KT 18/13 A2989 RMK A01 T01830126  RH  069%=      5-min Rain = 0
KSC1 241206Z 16006KT 18/13 A2989 RMK A01 T01830126  RH  069%=      5-min Rain = 0
KSC1 241207Z 16008KT 18/13 A2989 RMK A01 T01830126  RH  069%=      5-min Rain = 0
KSC1 241208Z 16007KT 18/13 A2989 RMK A01 T01840126  RH  069%=      5-min Rain = 0
KSC1 241209Z 15007KT 18/13 A2989 RMK A01 T01840126  RH  069%=      5-min Rain = 0
KSC1 241210Z 16009KT 19/13 A2989 RMK A01 T01850127  RH  069%=      5-min Rain = 0
KSC1 241211Z 15007KT 19/13 A2989 RMK A01 T01850127  RH  069%=      5-min Rain = 0
KSC1 241212Z 15008KT 19/13 A2989 RMK A01 T01850127  RH  069%=      5-min Rain = 0
KSC1 241213Z 16008KT 19/13 A2989 RMK A01 T01850127  RH  069%=      5-min Rain = 0
KSC1 241214Z 16007KT 19/13 A2988 RMK A01 T01860127  RH  069%=      5-min Rain = 0
KSC1 241215Z 16009KT 19/13 A2988 RMK A01 T01850127  RH  069%=      5-min Rain = 0
KSC1 241216Z 15007KT 19/13 A2988 RMK A01 T01860128  RH  069%=      5-min Rain = 0
KSC1 241217Z 16007KT 19/13 A2988 RMK A01 T01860128  RH  069%=      5-min Rain = 0
KSC1 241218Z 16007KT 19/13 A2988 RMK A01 T01860128  RH  069%=      5-min Rain = 0
KSC1 241219Z 16009KT 19/13 A2988 RMK A01 T01860129  RH  069%=      5-min Rain = 0
KSC1 241220Z 16009KT 19/13 A2988 RMK A01 T01870129  RH  069%=      5-min Rain = 0
KSC1 241221Z 16009KT 19/13 A2989 RMK A01 T01870130  RH  069%=      5-min Rain = 0
KSC1 241222Z 16009KT 19/13 A2989 RMK A01 T01870130  RH  069%=      5-min Rain = 0
KSC1 241223Z 17007KT 19/13 A2988 RMK A01 T01880130  RH  069%=      5-min Rain = 0
KSC1 241224Z 16009KT 19/13 A2989 RMK A01 T01880130  RH  069%=      5-min Rain = 0
KSC1 241225Z 17008KT 19/13 A2988 RMK A01 T01880131  RH  069%=      5-min Rain = 0
KSC1 241226Z 16008KT 19/13 A2989 RMK A01 T01890131  RH  069%=      5-min Rain = 0
KSC1 241227Z 17007KT 19/13 A2988 RMK A01 T01890131  RH  069%=      5-min Rain = 0
KSC1 241228Z 16009KT 19/13 A2988 RMK A01 T01890132  RH  069%=      5-min Rain = 0
KSC1 241229Z 16008KT 19/13 A2989 RMK A01 T01890132  RH  069%=      5-min Rain = 0
KSC1 241230Z 17008KT 19/13 A2988 RMK A01 T01900133  RH  069%=      5-min Rain = 0
KSC1 241231Z 16008KT 19/13 A2988 RMK A01 T01900133  RH  069%=      5-min Rain = 0
KSC1 241232Z 16009KT 19/13 A2988 RMK A01 T01910133  RH  069%=      5-min Rain = 0
KSC1 241233Z 16008KT 19/13 A2988 RMK A01 T01920134  RH  069%=      5-min Rain = 0
KSC1 241234Z 16008KT 19/13 A2988 RMK A01 T01920134  RH  069%=      5-min Rain = 0
KSC1 241235Z 16009KT 19/13 A2988 RMK A01 T01920134  RH  069%=      5-min Rain = 0
KSC1 241236Z 15010KT 19/14 A2988 RMK A01 T01920135  RH  069%=      5-min Rain = 0
KSC1 241237Z 16010KT 19/14 A2988 RMK A01 T01930135  RH  069%=      5-min Rain = 0
KSC1 241238Z 15008KT 19/14 A2988 RMK A01 T01930135  RH  069%=      5-min Rain = 0
KSC1 241239Z 16009KT 19/14 A2988 RMK A01 T01940136  RH  069%=      5-min Rain = 0
KSC1 241240Z 16009KT 19/14 A2988 RMK A01 T01940136  RH  069%=      5-min Rain = 0
KSC1 241241Z 16008KT 20/14 A2988 RMK A01 T01950137  RH  069%=      5-min Rain = 0
KSC1 241242Z 16008KT 20/14 A2988 RMK A01 T01960137  RH  069%=      5-min Rain = 0
KSC1 241243Z 16007KT 20/14 A2988 RMK A01 T01960137  RH  069%=      5-min Rain = 0
KSC1 241244Z 16008KT 20/14 A2988 RMK A01 T01960138  RH  069%=      5-min Rain = 0
KSC1 241245Z 16008KT 20/14 A2988 RMK A01 T01970138  RH  069%=      5-min Rain = 0
KSC1 241246Z 15007KT 20/14 A2988 RMK A01 T01970139  RH  069%=      5-min Rain = 0
KSC1 241247Z 15008KT 20/14 A2988 RMK A01 T01980139  RH  069%=      5-min Rain = 0
KSC1 241248Z 15009KT 20/14 A2988 RMK A01 T01980140  RH  069%=      5-min Rain = 0
KSC1 241249Z 16010KT 20/14 A2988 RMK A01 T01990141  RH  069%=      5-min Rain = 0
KSC1 241250Z 15009KT 20/14 A2988 RMK A01 T01990141  RH  069%=      5-min Rain = 0
KSC1 241251Z 15008G14KT 20/14 A2988 RMK A01 T02000141  RH  069%=      5-min Rain = 0
KSC1 241252Z 15007KT 20/14 A2988 RMK A01 T02000142  RH  069%=      5-min Rain = 0
KSC1 241253Z 15008KT 20/14 A2988 RMK A01 T02000142  RH  069%=      5-min Rain = 0
KSC1 241254Z 16010KT 20/14 A2988 RMK A01 T02010143  RH  069%=      5-min Rain = 0
KSC1 241255Z 15011KT 20/14 A2988 RMK A01 T02010143  RH  069%=      5-min Rain = 0
KSC1 241256Z 15008G13KT 20/14 A2988 RMK A01 T02010144  RH  069%=      5-min Rain = 0
KSC1 241257Z 15010G15KT 20/15 A2988 RMK A01 T02010145  RH  070%=      5-min Rain = 0
KSC1 241258Z 15011KT 20/15 A2988 RMK A01 T02020145  RH  070%=      5-min Rain = 0
KSC1 241259Z 16012KT 20/15 A2988 RMK A01 T02030146  RH  070%=      5-min Rain = 0
KSC1 241300Z 15009KT 20/15 A2988 RMK A01 T02030147  RH  070%=      5-min Rain = 0
KSC1 241301Z 16013KT 20/15 A2988 RMK A01 T02030148  RH  070%=      5-min Rain = 0
KSC1 241302Z 15012KT 20/15 A2988 RMK A01 T02030149  RH  071%=      5-min Rain = 0
KSC1 241303Z 16011KT 20/15 A2988 RMK A01 T02040149  RH  071%=      5-min Rain = 0
KSC1 241304Z 15011G18KT 20/15 A2988 RMK A01 T02040150  RH  071%=      5-min Rain = 0
KSC1 241305Z 16013KT 21/15 A2988 RMK A01 T02050151  RH  071%=      5-min Rain = 0
KSC1 241306Z 15011G16KT 21/15 A2988 RMK A01 T02050151  RH  071%=      5-min Rain = 0
KSC1 241307Z 17010KT 21/15 A2988 RMK A01 T02050152  RH  071%=      5-min Rain = 0
KSC1 241308Z 16011G16KT 21/15 A2988 RMK A01 T02060153  RH  072%=      5-min Rain = 0
KSC1 241309Z 16014KT 21/15 A2988 RMK A01 T02070154  RH  072%=      5-min Rain = 0
KSC1 241310Z 16012KT 21/15 A2988 RMK A01 T02070154  RH  072%=      5-min Rain = 0
KSC1 241311Z 16011KT 21/16 A2988 RMK A01 T02070155  RH  072%=      5-min Rain = 0
KSC1 241312Z 16009KT 21/16 A2988 RMK A01 T02070155  RH  072%=      5-min Rain = 0
KSC1 241313Z 16009KT 21/16 A2988 RMK A01 T02080156  RH  072%=      5-min Rain = 0
KSC1 241314Z 16010G17KT 21/16 A2988 RMK A01 T02080156  RH  072%=      5-min Rain = 0
KSC1 241315Z 15013G18KT 21/16 A2988 RMK A01 T02090156  RH  072%=      5-min Rain = 0
KSC1 241316Z 15014G21KT 21/16 A2988 RMK A01 T02090157  RH  072%=      5-min Rain = 0
KSC1 241317Z 17016KT 21/16 A2988 RMK A01 T02090157  RH  072%=      5-min Rain = 0
KSC1 241318Z 16014G19KT 21/16 A2988 RMK A01 T02080157  RH  073%=      5-min Rain = 0
KSC1 241319Z 16013KT 21/16 A2988 RMK A01 T02080158  RH  073%=      5-min Rain = 0
KSC1 241320Z 16016KT 21/16 A2988 RMK A01 T02080158  RH  073%=      5-min Rain = 0
KSC1 241321Z 16015G20KT 21/16 A2988 RMK A01 T02080158  RH  073%=      5-min Rain = 0
KSC1 241322Z 17012G19KT 21/16 A2988 RMK A01 T02080159  RH  074%=      5-min Rain = 0
KSC1 241323Z 17012KT 21/16 A2988 RMK A01 T02080159  RH  074%=      5-min Rain = 0
KSC1 241324Z 16013G19KT 21/16 A2988 RMK A01 T02080160  RH  074%=      5-min Rain = 0
KSC1 241325Z 16018KT 21/16 A2988 RMK A01 T02090160  RH  074%=      5-min Rain = 0
KSC1 241326Z 15015KT 21/16 A2988 RMK A01 T02080160  RH  074%=      5-min Rain = 0
KSC1 241327Z 16014G19KT 21/16 A2988 RMK A01 T02080160  RH  074%=      5-min Rain = 0
KSC1 241328Z 17013G18KT 21/16 A2988 RMK A01 T02090161  RH  074%=      5-min Rain = 0
KSC1 241329Z 16013G18KT 21/16 A2988 RMK A01 T02090161  RH  074%=      5-min Rain = 0
KSC1 241330Z 16017G24KT 21/16 A2988 RMK A01 T02100161  RH  074%=      5-min Rain = 0
KSC1 241331Z 16018KT 21/16 A2988 RMK A01 T02090160  RH  074%=      5-min Rain = 0
KSC1 241332Z 16018KT 21/16 A2988 RMK A01 T02080161  RH  074%=      5-min Rain = 0
KSC1 241333Z 17017G23KT 21/16 A2988 RMK A01 T02070161  RH  075%=      5-min Rain = 0
KSC1 241334Z 16015G20KT 21/16 A2988 RMK A01 T02070161  RH  075%=      5-min Rain = 0
KSC1 241335Z 17016G22KT 21/16 A2988 RMK A01 T02070161  RH  075%=      5-min Rain = 0
KSC1 241336Z 17017KT 21/16 A2988 RMK A01 T02080162  RH  075%=      5-min Rain = 0
KSC1 241337Z 17015G21KT 21/16 A2988 RMK A01 T02090162  RH  074%=      5-min Rain = 0
KSC1 241338Z 17020G25KT 21/16 A2988 RMK A01 T02090162  RH  074%=      5-min Rain = 0
KSC1 241339Z 17015G20KT 21/16 A2988 RMK A01 T02090162  RH  074%=      5-min Rain = 0
KSC1 241340Z 17021KT 21/16 A2988 RMK A01 T02090162  RH  075%=      5-min Rain = 0
KSC1 241341Z 16015KT 21/16 A2988 RMK A01 T02090162  RH  075%=      5-min Rain = 0
KSC1 241342Z 16012KT 21/16 A2988 RMK A01 T02080163  RH  075%=      5-min Rain = 0
KSC1 241343Z 17017G23KT 21/16 A2988 RMK A01 T02090163  RH  075%=      5-min Rain = 0
KSC1 241344Z 16018KT 21/16 A2988 RMK A01 T02100163  RH  075%=      5-min Rain = 0
KSC1 241345Z 16019KT 21/16 A2988 RMK A01 T02100163  RH  075%=      5-min Rain = 0
KSC1 241346Z 17016KT 21/16 A2988 RMK A01 T02100163  RH  075%=      5-min Rain = 0
KSC1 241347Z 17014KT 21/16 A2988 RMK A01 T02100164  RH  075%=      5-min Rain = 0
KSC1 241348Z 16014KT 21/16 A2988 RMK A01 T02110164  RH  075%=      5-min Rain = 0
KSC1 241349Z 15012KT 21/17 A2988 RMK A01 T02120165  RH  074%=      5-min Rain = 0
KSC1 241350Z 15013KT 21/17 A2988 RMK A01 T02140165  RH  074%=      5-min Rain = 0
KSC1 241351Z 16012KT 21/17 A2988 RMK A01 T02140165  RH  073%=      5-min Rain = 0
KSC1 241352Z 15014G22KT 22/17 A2988 RMK A01 T02150165  RH  073%=      5-min Rain = 0
KSC1 241353Z 16014KT 22/17 A2988 RMK A01 T02150165  RH  073%=      5-min Rain = 0
KSC1 241354Z 15014G19KT 22/17 A2988 RMK A01 T02150165  RH  073%=      5-min Rain = 0
KSC1 241355Z 16015KT 22/17 A2988 RMK A01 T02150165  RH  073%=      5-min Rain = 0
KSC1 241356Z 15016G21KT 22/17 A2988 RMK A01 T02160165  RH  073%=      5-min Rain = 0
KSC1 241357Z 16017G25KT 22/17 A2987 RMK A01 T02150165  RH  073%=      5-min Rain = 0
KSC1 241358Z 16017G22KT 21/17 A2987 RMK A01 T02140165  RH  073%=      5-min Rain = 0
KSC1 241359Z 16016G21KT 21/17 A2987 RMK A01 T02140165  RH  074%=      5-min Rain = 0
KSC1 241400Z 16010G15KT 21/17 A2987 RMK A01 T02140165  RH  074%=      5-min Rain = 0
KSC1 241401Z 16012G18KT 22/17 A2987 RMK A01 T02160166  RH  073%=      5-min Rain = 0
KSC1 241402Z 15011G21KT 22/17 A2987 RMK A01 T02180166  RH  073%=      5-min Rain = 0
KSC1 241403Z 17016G21KT 22/17 A2987 RMK A01 T02190167  RH  072%=      5-min Rain = 0
KSC1 241404Z 16016KT 22/17 A2987 RMK A01 T02200166  RH  071%=      5-min Rain = 0
KSC1 241405Z 16019KT 22/17 A2987 RMK A01 T02200166  RH  071%=      5-min Rain = 0
KSC1 241406Z 16015G20KT 22/17 A2987 RMK A01 T02200166  RH  071%=      5-min Rain = 0
KSC1 241407Z 16017KT 22/17 A2987 RMK A01 T02200166  RH  072%=      5-min Rain = 0
KSC1 241408Z 16016G22KT 22/17 A2987 RMK A01 T02220167  RH  071%=      5-min Rain = 0
KSC1 241409Z 16013KT 22/17 A2987 RMK A01 T02220167  RH  071%=      5-min Rain = 0
KSC1 241410Z 15013G18KT 22/17 A2987 RMK A01 T02230167  RH  071%=      5-min Rain = 0
KSC1 241411Z 15014KT 22/17 A2987 RMK A01 T02240168  RH  070%=      5-min Rain = 0
KSC1 241412Z 16015G21KT 23/17 A2987 RMK A01 T02260168  RH  070%=      5-min Rain = 0
KSC1 241413Z 16017KT 23/17 A2987 RMK A01 T02260168  RH  069%=      5-min Rain = 0
KSC1 241414Z 16017KT 23/17 A2987 RMK A01 T02260167  RH  069%=      5-min Rain = 0
KSC1 241415Z 16014KT 23/17 A2987 RMK A01 T02250167  RH  070%=      5-min Rain = 0
KSC1 241416Z 17013KT 23/17 A2987 RMK A01 T02250168  RH  070%=      5-min Rain = 0
KSC1 241417Z 15014KT 23/17 A2987 RMK A01 T02260168  RH  070%=      5-min Rain = 0
KSC1 241418Z 15013G20KT 23/17 A2987 RMK A01 T02260168  RH  070%=      5-min Rain = 0
KSC1 241419Z 15014G19KT 23/17 A2987 RMK A01 T02280168  RH  069%=      5-min Rain = 0
KSC1 241420Z 14014G19KT 23/17 A2987 RMK A01 T02280168  RH  069%=      5-min Rain = 0
KSC1 241421Z 14016G21KT 23/17 A2987 RMK A01 T02290168  RH  068%=      5-min Rain = 0
KSC1 241422Z 15015KT 23/17 A2987 RMK A01 T02290168  RH  068%=      5-min Rain = 0
KSC1 241423Z 15015G22KT 23/17 A2988 RMK A01 T02290168  RH  069%=      5-min Rain = 0
KSC1 241424Z 14017KT 23/17 A2988 RMK A01 T02290168  RH  069%=      5-min Rain = 0
KSC1 241425Z 15014KT 23/17 A2988 RMK A01 T02280168  RH  069%=      5-min Rain = 0
KSC1 241426Z 16012KT 23/17 A2988 RMK A01 T02290169  RH  069%=      5-min Rain = 0
KSC1 241427Z 16015G20KT 23/17 A2987 RMK A01 T02300169  RH  068%=      5-min Rain = 0
KSC1 241428Z 15018KT 23/17 A2987 RMK A01 T02300169  RH  068%=      5-min Rain = 0
KSC1 241429Z 15014G19KT 23/17 A2987 RMK A01 T02290169  RH  069%=      5-min Rain = 0
KSC1 241430Z 16014KT 23/17 A2987 RMK A01 T02300170  RH  069%=      5-min Rain = 0
KSC1 241431Z 16014KT 23/17 A2987 RMK A01 T02330171  RH  068%=      5-min Rain = 0
KSC1 241432Z 15013KT 23/17 A2987 RMK A01 T02340171  RH  067%=      5-min Rain = 0
KSC1 241433Z 14014KT 24/17 A2988 RMK A01 T02350171  RH  067%=      5-min Rain = 0
KSC1 241434Z 14018G24KT 23/17 A2988 RMK A01 T02340170  RH  067%=      5-min Rain = 0
KSC1 241435Z 15015G21KT 23/17 A2987 RMK A01 T02310169  RH  068%=      5-min Rain = 0
KSC1 241436Z 14011KT 23/17 A2988 RMK A01 T02300170  RH  069%=      5-min Rain = 0
KSC1 241437Z 15014KT 23/17 A2988 RMK A01 T02320171  RH  068%=      5-min Rain = 0
KSC1 241438Z 14016G21KT 23/17 A2988 RMK A01 T02320171  RH  068%=      5-min Rain = 0
KSC1 241439Z 15016KT 23/17 A2988 RMK A01 T02320171  RH  069%=      5-min Rain = 0
KSC1 241440Z 14013G19KT 23/17 A2987 RMK A01 T02320172  RH  069%=      5-min Rain = 0
KSC1 241441Z 14016KT 23/17 A2988 RMK A01 T02320173  RH  069%=      5-min Rain = 0
KSC1 241442Z 16016KT 23/17 A2988 RMK A01 T02330172  RH  069%=      5-min Rain = 0
KSC1 241443Z 15014KT 23/17 A2988 RMK A01 T02320173  RH  069%=      5-min Rain = 0
KSC1 241444Z 15015KT 23/17 A2988 RMK A01 T02330173  RH  069%=      5-min Rain = 0
KSC1 241445Z 15015KT 23/17 A2988 RMK A01 T02340174  RH  069%=      5-min Rain = 0
KSC1 241446Z 15015KT 24/17 A2988 RMK A01 T02350174  RH  069%=      5-min Rain = 0
KSC1 241447Z 16013KT 24/17 A2988 RMK A01 T02350174  RH  069%=      5-min Rain = 0
KSC1 241448Z 15013G20KT 24/18 A2988 RMK A01 T02360175  RH  069%=      5-min Rain = 0
KSC1 241449Z 15016G21KT 24/18 A2988 RMK A01 T02360175  RH  068%=      5-min Rain = 0
KSC1 241450Z 16017G25KT 24/18 A2987 RMK A01 T02350175  RH  069%=      5-min Rain = 0
KSC1 241451Z 16017G23KT 23/17 A2987 RMK A01 T02340174  RH  069%=      5-min Rain = 0
KSC1 241452Z 16017KT 23/17 A2987 RMK A01 T02330174  RH  069%=      5-min Rain = 0
KSC1 241453Z 15015G20KT 23/18 A2987 RMK A01 T02330175  RH  070%=      5-min Rain = 0
KSC1 241454Z 15013G19KT 24/18 A2987 RMK A01 T02350176  RH  070%=      5-min Rain = 0
KSC1 241455Z 15013G18KT 24/18 A2987 RMK A01 T02380177  RH  069%=      5-min Rain = 0
KSC1 241456Z 14015KT 24/18 A2987 RMK A01 T02400177  RH  068%=      5-min Rain = 0
KSC1 241457Z 15015KT 24/18 A2987 RMK A01 T02400176  RH  068%=      5-min Rain = 0
KSC1 241458Z 15009G15KT 24/18 A2987 RMK A01 T02400177  RH  068%=      5-min Rain = 0
KSC1 241459Z 15015G21KT 24/18 A2987 RMK A01 T02420178  RH  067%=      5-min Rain = 0
KSC1 241500Z 16020G25KT 24/18 A2987 RMK A01 T02420176  RH  067%=      5-min Rain = 0
KSC1 241501Z 15015KT 24/18 A2987 RMK A01 T02380175  RH  068%=      5-min Rain = 0
KSC1 241502Z 16013G18KT 24/18 A2987 RMK A01 T02370176  RH  069%=      5-min Rain = 0
KSC1 241503Z 15015KT 24/18 A2987 RMK A01 T02380176  RH  068%=      5-min Rain = 0
KSC1 241504Z 16016G22KT 24/18 A2987 RMK A01 T02390176  RH  068%=      5-min Rain = 0
KSC1 241505Z 15017G25KT 24/18 A2987 RMK A01 T02390176  RH  068%=      5-min Rain = 0
KSC1 241506Z 15017G22KT 24/18 A2987 RMK A01 T02380176  RH  068%=      5-min Rain = 0
KSC1 241507Z 15015KT 24/18 A2987 RMK A01 T02370176  RH  069%=      5-min Rain = 0
KSC1 241508Z 15017KT 24/18 A2987 RMK A01 T02370176  RH  069%=      5-min Rain = 0
KSC1 241509Z 15018G25KT 24/18 A2987 RMK A01 T02370176  RH  068%=      5-min Rain = 0
KSC1 241510Z 15018KT 24/18 A2987 RMK A01 T02370176  RH  068%=      5-min Rain = 0
KSC1 241511Z 16016G23KT 24/18 A2987 RMK A01 T02380177  RH  069%=      5-min Rain = 0
KSC1 241512Z 15017KT 24/18 A2987 RMK A01 T02380177  RH  069%=      5-min Rain = 0
KSC1 241513Z 16017G23KT 24/18 A2987 RMK A01 T02380176  RH  068%=      5-min Rain = 0
KSC1 241514Z 15016G21KT 24/18 A2987 RMK A01 T02380177  RH  068%=      5-min Rain = 0
KSC1 241515Z 16012KT 24/18 A2987 RMK A01 T02400178  RH  068%=      5-min Rain = 0
KSC1 241516Z 14009G17KT 24/18 A2987 RMK A01 T02430179  RH  068%=      5-min Rain = 0
KSC1 241517Z 15012KT 25/18 A2987 RMK A01 T02460180  RH  067%=      5-min Rain = 0
KSC1 241518Z 15011KT 25/18 A2987 RMK A01 T02480179  RH  066%=      5-min Rain = 0
KSC1 241519Z 16016G21KT 25/18 A2987 RMK A01 T02480179  RH  065%=      5-min Rain = 0
KSC1 241520Z 14020KT 25/18 A2987 RMK A01 T02460178  RH  066%=      5-min Rain = 0
KSC1 241521Z 15019KT 24/18 A2987 RMK A01 T02440177  RH  066%=      5-min Rain = 0
KSC1 241522Z 17015KT 24/18 A2987 RMK A01 T02430177  RH  067%=      5-min Rain = 0
KSC1 241523Z 16014G21KT 24/18 A2987 RMK A01 T02440179  RH  067%=      5-min Rain = 0
KSC1 241524Z 16013KT 25/18 A2987 RMK A01 T02470180  RH  066%=      5-min Rain = 0
KSC1 241525Z 15015KT 25/18 A2987 RMK A01 T02490180  RH  065%=      5-min Rain = 0
KSC1 241526Z 15016KT 25/18 A2987 RMK A01 T02500179  RH  065%=      5-min Rain = 0
KSC1 241527Z 16011G16KT 25/18 A2987 RMK A01 T02500180  RH  065%=      5-min Rain = 0
KSC1 241528Z 16011G17KT 25/18 A2987 RMK A01 T02510181  RH  065%=      5-min Rain = 0
KSC1 241529Z 14017G22KT 25/18 A2987 RMK A01 T02520180  RH  064%=      5-min Rain = 0
KSC1 241530Z 14017KT 25/18 A2987 RMK A01 T02500179  RH  064%=      5-min Rain = 0
KSC1 241531Z 14016G22KT 25/18 A2987 RMK A01 T02490178  RH  065%=      5-min Rain = 0
KSC1 241532Z 15012G17KT 25/18 A2987 RMK A01 T02470179  RH  066%=      5-min Rain = 0
KSC1 241533Z 14013G22KT 25/18 A2987 RMK A01 T02490180  RH  066%=      5-min Rain = 0
KSC1 241534Z 15017KT 25/18 A2986 RMK A01 T02510180  RH  064%=      5-min Rain = 0
KSC1 241535Z 16017G22KT 25/18 A2986 RMK A01 T02510180  RH  064%=      5-min Rain = 0
KSC1 241536Z 17017G25KT 25/18 A2987 RMK A01 T02500179  RH  064%=      5-min Rain = 0
KSC1 241537Z 16016G22KT 25/18 A2986 RMK A01 T02490178  RH  065%=      5-min Rain = 0
KSC1 241538Z 16013G18KT 25/18 A2987 RMK A01 T02480178  RH  065%=      5-min Rain = 0
KSC1 241539Z 16016G22KT 25/18 A2986 RMK A01 T02470178  RH  066%=      5-min Rain = 0
KSC1 241540Z 16018G23KT 25/18 A2986 RMK A01 T02450178  RH  066%=      5-min Rain = 0
KSC1 241541Z 16016KT 24/18 A2986 RMK A01 T02440178  RH  067%=      5-min Rain = 0
KSC1 241542Z 16018G23KT 24/18 A2986 RMK A01 T02440178  RH  066%=      5-min Rain = 0
KSC1 241543Z 15013KT 25/18 A2986 RMK A01 T02470180  RH  066%=      5-min Rain = 0
KSC1 241544Z 16017KT 25/18 A2986 RMK A01 T02510180  RH  065%=      5-min Rain = 0
KSC1 241545Z 15014G24KT 25/18 A2986 RMK A01 T02520179  RH  064%=      5-min Rain = 0
KSC1 241546Z 15017KT 25/18 A2986 RMK A01 T02530179  RH  063%=      5-min Rain = 0
KSC1 241547Z 15018G23KT 26/18 A2986 RMK A01 T02550179  RH  063%=      5-min Rain = 0
KSC1 241548Z 16019G28KT 26/18 A2986 RMK A01 T02550179  RH  063%=      5-min Rain = 0
KSC1 241549Z 15017G23KT 25/18 A2986 RMK A01 T02530178  RH  063%=      5-min Rain = 0
KSC1 241550Z 16013G19KT 25/18 A2986 RMK A01 T02520179  RH  064%=      5-min Rain = 0
KSC1 241551Z 15016G21KT 26/18 A2986 RMK A01 T02550180  RH  063%=      5-min Rain = 0
KSC1 241552Z 15016G21KT 26/18 A2987 RMK A01 T02560179  RH  062%=      5-min Rain = 0
KSC1 241553Z 15016G21KT 25/18 A2987 RMK A01 T02540178  RH  063%=      5-min Rain = 0
KSC1 241554Z 15016G21KT 25/18 A2987 RMK A01 T02520179  RH  064%=      5-min Rain = 0
KSC1 241555Z 16013G20KT 25/18 A2987 RMK A01 T02510179  RH  064%=      5-min Rain = 0
KSC1 241556Z 16010KT 25/18 A2987 RMK A01 T02500179  RH  065%=      5-min Rain = 0
KSC1 241557Z 15014G19KT 25/18 A2986 RMK A01 T02520179  RH  064%=      5-min Rain = 0
KSC1 241558Z 15015KT 25/18 A2986 RMK A01 T02520180  RH  064%=      5-min Rain = 0
KSC1 241559Z 16018G24KT 25/18 A2987 RMK A01 T02530180  RH  064%=      5-min Rain = 0
KSC1 241600Z 16014KT 25/18 A2987 RMK A01 T02530179  RH  063%=      5-min Rain = 0
KSC1 241601Z 15012G19KT 25/18 A2987 RMK A01 T02530179  RH  063%=      5-min Rain = 0
KSC1 241602Z 16013G18KT 26/18 A2987 RMK A01 T02550179  RH  063%=      5-min Rain = 0
KSC1 241603Z 16014G19KT 26/18 A2987 RMK A01 T02570180  RH  062%=      5-min Rain = 0
KSC1 241604Z 16015G20KT 26/18 A2987 RMK A01 T02580179  RH  062%=      5-min Rain = 0
KSC1 241605Z 16016KT 26/18 A2987 RMK A01 T02570179  RH  062%=      5-min Rain = 0
KSC1 241606Z 16014KT 26/18 A2987 RMK A01 T02560178  RH  062%=      5-min Rain = 0
KSC1 241607Z 16014KT 25/18 A2986 RMK A01 T02540179  RH  063%=      5-min Rain = 0
KSC1 241608Z 15015KT 25/18 A2987 RMK A01 T02540179  RH  063%=      5-min Rain = 0
KSC1 241609Z 17016G21KT 26/18 A2986 RMK A01 T02570180  RH  063%=      5-min Rain = 0
KSC1 241610Z 16015G20KT 26/18 A2986 RMK A01 T02570179  RH  062%=      5-min Rain = 0
KSC1 241611Z 14018G23KT 26/18 A2986 RMK A01 T02570178  RH  062%=      5-min Rain = 0
KSC1 241612Z 15014KT 25/18 A2986 RMK A01 T02540177  RH  062%=      5-min Rain = 0
KSC1 241613Z 15011G17KT 26/18 A2986 RMK A01 T02550179  RH  063%=      5-min Rain = 0
KSC1 241614Z 15013G18KT 26/18 A2986 RMK A01 T02580180  RH  062%=      5-min Rain = 0
KSC1 241615Z 17010KT 26/18 A2986 RMK A01 T02580179  RH  062%=      5-min Rain = 0
KSC1 241616Z 14014G19KT 26/18 A2986 RMK A01 T02580180  RH  062%=      5-min Rain = 0
KSC1 241617Z 16011KT 26/18 A2986 RMK A01 T02610181  RH  061%=      5-min Rain = 0
KSC1 241618Z 15011G16KT 26/18 A2986 RMK A01 T02640182  RH  060%=      5-min Rain = 0
KSC1 241619Z 16011KT 27/18 A2986 RMK A01 T02670182  RH  060%=      5-min Rain = 0
KSC1 241620Z 17014G19KT 27/18 A2986 RMK A01 T02690181  RH  059%=      5-min Rain = 0
KSC1 241621Z 17015KT 27/18 A2986 RMK A01 T02670179  RH  058%=      5-min Rain = 0
KSC1 241622Z 17016KT 26/18 A2986 RMK A01 T02630178  RH  060%=      5-min Rain = 0
KSC1 241623Z 16018KT 26/18 A2986 RMK A01 T02620179  RH  060%=      5-min Rain = 0
KSC1 241624Z 17017KT 26/18 A2986 RMK A01 T02610178  RH  060%=      5-min Rain = 0
KSC1 241625Z 16015G20KT 26/18 A2986 RMK A01 T02620179  RH  060%=      5-min Rain = 0
KSC1 241626Z 17016KT 26/18 A2986 RMK A01 T02640180  RH  060%=      5-min Rain = 0
KSC1 241627Z 15015G20KT 27/18 A2986 RMK A01 T02650180  RH  060%=      5-min Rain = 0
KSC1 241628Z 16013G20KT 27/18 A2986 RMK A01 T02660181  RH  059%=      5-min Rain = 0
KSC1 241629Z 17017KT 27/18 A2986 RMK A01 T02700182  RH  059%=      5-min Rain = 0
KSC1 241630Z 16016G21KT 27/18 A2986 RMK A01 T02700181  RH  058%=      5-min Rain = 0
KSC1 241631Z 16020KT 27/18 A2986 RMK A01 T02680180  RH  059%=      5-min Rain = 0
KSC1 241632Z 16016KT 27/18 A2986 RMK A01 T02670179  RH  058%=      5-min Rain = 0
KSC1 241633Z 15016G22KT 27/18 A2986 RMK A01 T02690180  RH  058%=      5-min Rain = 0
KSC1 241634Z 15018G23KT 27/18 A2986 RMK A01 T02720179  RH  057%=      5-min Rain = 0
KSC1 241635Z 17011KT 27/18 A2986 RMK A01 T02700180  RH  058%=      5-min Rain = 0
KSC1 241636Z 15016G22KT 27/18 A2986 RMK A01 T02730180  RH  057%=      5-min Rain = 0
KSC1 241637Z 15015G20KT 27/18 A2986 RMK A01 T02730180  RH  057%=      5-min Rain = 0
KSC1 241638Z 15015KT 27/18 A2986 RMK A01 T02730180  RH  057%=      5-min Rain = 0
KSC1 241639Z 14018G24KT 27/18 A2986 RMK A01 T02740181  RH  057%=      5-min Rain = 0
KSC1 241640Z 14015G20KT 27/18 A2986 RMK A01 T02740181  RH  057%=      5-min Rain = 0
KSC1 241641Z 15016KT 27/18 A2986 RMK A01 T02740182  RH  057%=      5-min Rain = 0
KSC1 241642Z 16016KT 27/18 A2986 RMK A01 T02740182  RH  057%=      5-min Rain = 0
KSC1 241643Z 15016G22KT 27/18 A2986 RMK A01 T02740181  RH  057%=      5-min Rain = 0
KSC1 241644Z 14019KT 27/18 A2986 RMK A01 T02740181  RH  057%=      5-min Rain = 0
KSC1 241645Z 15017KT 27/18 A2986 RMK A01 T02730180  RH  057%=      5-min Rain = 0
KSC1 241646Z 15016G21KT 27/18 A2986 RMK A01 T02730181  RH  057%=      5-min Rain = 0
KSC1 241647Z 15017G22KT 27/18 A2986 RMK A01 T02740181  RH  057%=      5-min Rain = 0
KSC1 241648Z 14016KT 27/18 A2986 RMK A01 T02740180  RH  056%=      5-min Rain = 0
KSC1 241649Z 16016G22KT 27/18 A2986 RMK A01 T02740180  RH  057%=      5-min Rain = 0
KSC1 241650Z 16016KT 27/18 A2986 RMK A01 T02720180  RH  057%=      5-min Rain = 0
KSC1 241651Z 17017G23KT 27/18 A2986 RMK A01 T02710181  RH  058%=      5-min Rain = 0
KSC1 241652Z 16014KT 27/18 A2986 RMK A01 T02730181  RH  057%=      5-min Rain = 0
KSC1 241653Z 16013G19KT 27/18 A2986 RMK A01 T02740182  RH  057%=      5-min Rain = 0
KSC1 241654Z 15013G18KT 28/18 A2986 RMK A01 T02770184  RH  057%=      5-min Rain = 0
KSC1 241655Z 16011KT 28/18 A2986 RMK A01 T02820184  RH  056%=      5-min Rain = 0
KSC1 241656Z 17014KT 28/18 A2986 RMK A01 T02840184  RH  055%=      5-min Rain = 0
KSC1 241657Z 15012G18KT 28/18 A2986 RMK A01 T02840184  RH  054%=      5-min Rain = 0
KSC1 241658Z 17015KT 29/18 A2986 RMK A01 T02860184  RH  054%=      5-min Rain = 0
KSC1 241659Z 15015KT 29/18 A2986 RMK A01 T02860182  RH  053%=      5-min Rain = 0
KSC1 241700Z 14017KT 29/18 A2986 RMK A01 T02850182  RH  054%=      5-min Rain = 0
KSC1 241701Z 14017G23KT 28/18 A2986 RMK A01 T02830182  RH  054%=      5-min Rain = 0
KSC1 241702Z 15016KT 28/18 A2986 RMK A01 T02810182  RH  055%=      5-min Rain = 0
KSC1 241703Z 16014G19KT 28/18 A2986 RMK A01 T02800182  RH  055%=      5-min Rain = 0
KSC1 241704Z 15015KT 28/18 A2986 RMK A01 T02800182  RH  055%=      5-min Rain = 0
KSC1 241705Z 16016KT 28/18 A2986 RMK A01 T02780181  RH  055%=      5-min Rain = 0
KSC1 241706Z 15014G19KT 28/18 A2986 RMK A01 T02790183  RH  056%=      5-min Rain = 0
KSC1 241707Z 15016KT 28/18 A2986 RMK A01 T02820183  RH  055%=      5-min Rain = 0
KSC1 241708Z 16017KT 28/18 A2986 RMK A01 T02810182  RH  055%=      5-min Rain = 0
KSC1 241709Z 15014G19KT 28/18 A2986 RMK A01 T02780181  RH  055%=      5-min Rain = 0
KSC1 241710Z 15012KT 28/18 A2986 RMK A01 T02780182  RH  056%=      5-min Rain = 0
KSC1 241711Z 16014G20KT 28/18 A2986 RMK A01 T02800184  RH  056%=      5-min Rain = 0
KSC1 241712Z 18015G20KT 29/18 A2986 RMK A01 T02850184  RH  054%=      5-min Rain = 0
KSC1 241713Z 18013G18KT 29/18 A2986 RMK A01 T02860183  RH  054%=      5-min Rain = 0
KSC1 241714Z 17016KT 29/18 A2986 RMK A01 T02870183  RH  053%=      5-min Rain = 0
KSC1 241715Z 16016KT 29/18 A2986 RMK A01 T02850182  RH  054%=      5-min Rain = 0
KSC1 241716Z 14015KT 28/18 A2986 RMK A01 T02830182  RH  054%=      5-min Rain = 0
KSC1 241717Z 15017KT 28/18 A2986 RMK A01 T02830183  RH  055%=      5-min Rain = 0
KSC1 241718Z 15015KT 28/18 A2986 RMK A01 T02840183  RH  054%=      5-min Rain = 0
KSC1 241719Z 14012G18KT 29/18 A2986 RMK A01 T02850183  RH  054%=      5-min Rain = 0
KSC1 241720Z 15013G20KT 29/18 A2986 RMK A01 T02870183  RH  054%=      5-min Rain = 0
KSC1 241721Z 16016G21KT 29/18 A2986 RMK A01 T02870182  RH  053%=      5-min Rain = 0
KSC1 241722Z 14014G19KT 29/18 A2986 RMK A01 T02870183  RH  053%=      5-min Rain = 0
KSC1 241723Z 15015G22KT 29/18 A2986 RMK A01 T02880183  RH  053%=      5-min Rain = 0
KSC1 241724Z 16013KT 29/18 A2985 RMK A01 T02890184  RH  053%=      5-min Rain = 0
KSC1 241725Z 15017KT 29/19 A2985 RMK A01 T02910185  RH  053%=      5-min Rain = 0
KSC1 241726Z 15015KT 29/18 A2985 RMK A01 T02900182  RH  052%=      5-min Rain = 0
KSC1 241727Z 13014KT 29/18 A2985 RMK A01 T02860182  RH  053%=      5-min Rain = 0
KSC1 241728Z 13013G18KT 29/18 A2985 RMK A01 T02860183  RH  054%=      5-min Rain = 0
KSC1 241729Z 15017G23KT 29/18 A2985 RMK A01 T02870182  RH  053%=      5-min Rain = 0
KSC1 241730Z 16015KT 29/18 A2985 RMK A01 T02890182  RH  053%=      5-min Rain = 0
KSC1 241731Z 16013KT 29/18 A2985 RMK A01 T02900182  RH  052%=      5-min Rain = 0
KSC1 241732Z 13013KT 29/18 A2985 RMK A01 T02910184  RH  052%=      5-min Rain = 0
KSC1 241733Z 14013KT 30/19 A2985 RMK A01 T02950185  RH  051%=      5-min Rain = 0
KSC1 241734Z 15014G19KT 30/19 A2985 RMK A01 T02980185  RH  051%=      5-min Rain = 0
KSC1 241735Z 15016KT 30/18 A2985 RMK A01 T02980184  RH  050%=      5-min Rain = 0
KSC1 241736Z 14013G21KT 29/18 A2985 RMK A01 T02940184  RH  051%=      5-min Rain = 0
KSC1 241737Z 15015G20KT 29/18 A2985 RMK A01 T02930183  RH  051%=      5-min Rain = 0
KSC1 241738Z 15016KT 29/18 A2985 RMK A01 T02930183  RH  052%=      5-min Rain = 0
KSC1 241739Z 16017G22KT 29/18 A2984 RMK A01 T02920182  RH  052%=      5-min Rain = 0
KSC1 241740Z 17017KT 29/18 A2984 RMK A01 T02920182  RH  051%=      5-min Rain = 0
KSC1 241741Z 17014KT 29/18 A2984 RMK A01 T02920182  RH  051%=      5-min Rain = 0
KSC1 241742Z 16011KT 29/18 A2984 RMK A01 T02910182  RH  052%=      5-min Rain = 0
KSC1 241743Z 15012KT 29/18 A2984 RMK A01 T02940184  RH  051%=      5-min Rain = 0
KSC1 241744Z 15018G25KT 30/18 A2984 RMK A01 T02970181  RH  050%=      5-min Rain = 0
KSC1 241745Z 15017KT 30/18 A2984 RMK A01 T02960180  RH  050%=      5-min Rain = 0
KSC1 241746Z 16014G21KT 29/18 A2984 RMK A01 T02940180  RH  050%=      5-min Rain = 0
KSC1 241747Z 14015G20KT 30/18 A2984 RMK A01 T02960181  RH  050%=      5-min Rain = 0
KSC1 241748Z 15018KT 30/18 A2984 RMK A01 T02960180  RH  050%=      5-min Rain = 0
KSC1 241749Z 15014G19KT 30/18 A2984 RMK A01 T02950179  RH  050%=      5-min Rain = 0
KSC1 241750Z 16015G20KT 30/18 A2984 RMK A01 T02950180  RH  050%=      5-min Rain = 0
KSC1 241751Z 16011KT 30/18 A2984 RMK A01 T02960181  RH  050%=      5-min Rain = 0
KSC1 241752Z 17015G20KT 30/18 A2984 RMK A01 T02990182  RH  050%=      5-min Rain = 0
KSC1 241753Z 15014G19KT 30/18 A2984 RMK A01 T02990182  RH  050%=      5-min Rain = 0
KSC1 241754Z 16012KT 30/18 A2984 RMK A01 T02970183  RH  050%=      5-min Rain = 0
KSC1 241755Z 15009KT 30/18 A2984 RMK A01 T02990181  RH  049%=      5-min Rain = 0
KSC1 241756Z 16012KT 30/18 A2983 RMK A01 T03010184  RH  049%=      5-min Rain = 0
KSC1 241757Z 16014KT 30/18 A2983 RMK A01 T03030182  RH  048%=      5-min Rain = 0
KSC1 241758Z 15012G18KT 30/18 A2983 RMK A01 T03010183  RH  049%=      5-min Rain = 0
KSC1 241759Z 15013G18KT 30/18 A2983 RMK A01 T03030183  RH  049%=      5-min Rain = 0
KSC1 241800Z 16015G21KT 31/18 A2983 RMK A01 T03050182  RH  048%=      5-min Rain = 0
KSC1 241801Z 17017G23KT 30/18 A2983 RMK A01 T03030180  RH  048%=      5-min Rain = 0
KSC1 241802Z 17015KT 30/18 A2983 RMK A01 T03020180  RH  048%=      5-min Rain = 0
KSC1 241803Z 17013KT 30/18 A2983 RMK A01 T03010180  RH  048%=      5-min Rain = 0
KSC1 241804Z 17013G18KT 30/18 A2983 RMK A01 T03020182  RH  048%=      5-min Rain = 0
KSC1 241805Z 16016KT 31/18 A2983 RMK A01 T03050182  RH  048%=      5-min Rain = 0
KSC1 241806Z 17017KT 31/18 A2983 RMK A01 T03060180  RH  047%=      5-min Rain = 0
KSC1 241807Z 16016KT 31/18 A2983 RMK A01 T03050177  RH  046%=      5-min Rain = 0
KSC1 241808Z 16015G20KT 30/18 A2983 RMK A01 T03020176  RH  047%=      5-min Rain = 0
KSC1 241809Z 16014KT 30/18 A2983 RMK A01 T03020177  RH  047%=      5-min Rain = 0
KSC1 241810Z 16015KT 30/18 A2983 RMK A01 T03030176  RH  047%=      5-min Rain = 0
KSC1 241811Z 16012KT 30/18 A2983 RMK A01 T03030177  RH  047%=      5-min Rain = 0
KSC1 241812Z 15012KT 31/18 A2983 RMK A01 T03060180  RH  047%=      5-min Rain = 0
KSC1 241813Z 16017KT 31/18 A2982 RMK A01 T03060180  RH  047%=      5-min Rain = 0
KSC1 241814Z 17015KT 31/18 A2983 RMK A01 T03060179  RH  047%=      5-min Rain = 0
KSC1 241815Z 15015G20KT 31/18 A2982 RMK A01 T03060179  RH  047%=      5-min Rain = 0
KSC1 241816Z 15013G19KT 31/18 A2983 RMK A01 T03060177  RH  046%=      5-min Rain = 0
KSC1 241817Z 14014KT 31/18 A2982 RMK A01 T03060177  RH  046%=      5-min Rain = 0
KSC1 241818Z 15014KT 31/18 A2982 RMK A01 T03060177  RH  046%=      5-min Rain = 0
KSC1 241819Z 16015G20KT 31/18 A2982 RMK A01 T03080178  RH  046%=      5-min Rain = 0
KSC1 241820Z 16012G17KT 31/18 A2982 RMK A01 T03090180  RH  046%=      5-min Rain = 0
KSC1 241821Z 18014KT 31/18 A2982 RMK A01 T03080179  RH  046%=      5-min Rain = 0
KSC1 241822Z 16012KT 31/18 A2982 RMK A01 T03060180  RH  047%=      5-min Rain = 0
KSC1 241823Z 16015G21KT 31/18 A2982 RMK A01 T03070181  RH  047%=      5-min Rain = 0
KSC1 241824Z 15013G18KT 31/18 A2982 RMK A01 T03090177  RH  045%=      5-min Rain = 0
KSC1 241825Z 15013G18KT 31/18 A2982 RMK A01 T03100176  RH  045%=      5-min Rain = 0
KSC1 241826Z 14013G18KT 31/17 A2982 RMK A01 T03100173  RH  044%=      5-min Rain = 0
KSC1 241827Z 16013G19KT 31/17 A2982 RMK A01 T03100174  RH  044%=      5-min Rain = 0
KSC1 241828Z 16015KT 31/17 A2982 RMK A01 T03120172  RH  043%=      5-min Rain = 0
KSC1 241829Z 16014KT 31/17 A2982 RMK A01 T03110174  RH  044%=      5-min Rain = 0
KSC1 241830Z 14015KT 31/18 A2982 RMK A01 T03120175  RH  044%=      5-min Rain = 0
KSC1 241831Z 14012KT 31/17 A2982 RMK A01 T03140173  RH  043%=      5-min Rain = 0
KSC1 241832Z 15010KT 31/17 A2982 RMK A01 T03120173  RH  043%=      5-min Rain = 0
KSC1 241833Z 17015G20KT 31/18 A2981 RMK A01 T03120177  RH  044%=      5-min Rain = 0
KSC1 241834Z 15015KT 31/18 A2981 RMK A01 T03110179  RH  045%=      5-min Rain = 0
KSC1 241835Z 15013KT 31/18 A2981 RMK A01 T03100179  RH  046%=      5-min Rain = 0
KSC1 241836Z 16016G22KT 31/18 A2981 RMK A01 T03100180  RH  046%=      5-min Rain = 0
KSC1 241837Z 17018KT 31/18 A2981 RMK A01 T03120175  RH  044%=      5-min Rain = 0
KSC1 241838Z 17012G17KT 31/17 A2981 RMK A01 T03110174  RH  044%=      5-min Rain = 0
KSC1 241839Z 17009KT 31/18 A2981 RMK A01 T03130175  RH  044%=      5-min Rain = 0
KSC1 241840Z 17013G20KT 32/18 A2981 RMK A01 T03160175  RH  043%=      5-min Rain = 0
KSC1 241841Z 14019KT 32/17 A2981 RMK A01 T03180174  RH  042%=      5-min Rain = 0
KSC1 241842Z 16018G23KT 32/17 A2981 RMK A01 T03150173  RH  043%=      5-min Rain = 0
KSC1 241843Z 16018G23KT 31/17 A2981 RMK A01 T03140170  RH  042%=      5-min Rain = 0
KSC1 241844Z 16017KT 31/17 A2981 RMK A01 T03120171  RH  043%=      5-min Rain = 0
KSC1 241845Z 16014KT 31/17 A2981 RMK A01 T03140172  RH  043%=      5-min Rain = 0
KSC1 241846Z 17014KT 31/18 A2981 RMK A01 T03130175  RH  044%=      5-min Rain = 0
KSC1 241847Z 17016G21KT 31/18 A2981 RMK A01 T03130177  RH  044%=      5-min Rain = 0
KSC1 241848Z 16015G21KT 32/18 A2981 RMK A01 T03150177  RH  044%=      5-min Rain = 0
KSC1 241849Z 14015KT 31/18 A2981 RMK A01 T03130177  RH  044%=      5-min Rain = 0
KSC1 241850Z 15015G20KT 31/18 A2981 RMK A01 T03110176  RH  044%=      5-min Rain = 0
KSC1 241851Z 15017KT 31/18 A2981 RMK A01 T03120176  RH  044%=      5-min Rain = 0
KSC1 241852Z 15018KT 31/18 A2981 RMK A01 T03130175  RH  044%=      5-min Rain = 0
KSC1 241853Z 17015KT 31/18 A2981 RMK A01 T03130175  RH  044%=      5-min Rain = 0
KSC1 241854Z 16012G19KT 32/18 A2981 RMK A01 T03150175  RH  043%=      5-min Rain = 0
KSC1 241855Z 14016G21KT 32/18 A2981 RMK A01 T03170175  RH  043%=      5-min Rain = 0
KSC1 241856Z 15015KT 32/17 A2981 RMK A01 T03180171  RH  041%=      5-min Rain = 0
KSC1 241857Z 15011KT 31/17 A298 RMK A01 T03140169  RH  042%=      5-min Rain = 0
KSC1 241858Z 14016G22KT 31/17 A298 RMK A01 T03140169  RH  042%=      5-min Rain = 0
KSC1 241859Z 15016KT 32/17 A298 RMK A01 T03160169  RH  041%=      5-min Rain = 0
KSC1 241900Z 17015G20KT 32/17 A298 RMK A01 T03160170  RH  042%=      5-min Rain = 0
KSC1 241901Z 14013G18KT 32/17 A298 RMK A01 T03160169  RH  041%=      5-min Rain = 0
KSC1 241902Z 14014G20KT 32/17 A298 RMK A01 T03170167  RH  041%=      5-min Rain = 0
KSC1 241903Z 15013KT 32/17 A298 RMK A01 T03160169  RH  041%=      5-min Rain = 0
KSC1 241904Z 14014G19KT 32/17 A298 RMK A01 T03150169  RH  042%=      5-min Rain = 0
KSC1 241905Z 14013G18KT 32/17 A298 RMK A01 T03170171  RH  041%=      5-min Rain = 0
KSC1 241906Z 16014G21KT 32/17 A298 RMK A01 T03210173  RH  041%=      5-min Rain = 0
KSC1 241907Z 16014KT 32/17 A2979 RMK A01 T03240170  RH  040%=      5-min Rain = 0
KSC1 241908Z 15012KT 33/17 A2979 RMK A01 T03250170  RH  040%=      5-min Rain = 0
KSC1 241909Z 17016G21KT 33/17 A2979 RMK A01 T03260169  RH  039%=      5-min Rain = 0
KSC1 241910Z 15013KT 32/17 A2979 RMK A01 T03220169  RH  040%=      5-min Rain = 0
KSC1 241911Z 18011KT 32/17 A2979 RMK A01 T03210165  RH  039%=      5-min Rain = 0
KSC1 241912Z 17013KT 32/17 A2979 RMK A01 T03220167  RH  039%=      5-min Rain = 0
KSC1 241913Z 17013KT 33/17 A2979 RMK A01 T03260171  RH  040%=      5-min Rain = 0
KSC1 241914Z 15016G21KT 33/17 A2979 RMK A01 T03270171  RH  039%=      5-min Rain = 0
KSC1 241915Z 15017KT 32/17 A2979 RMK A01 T03240166  RH  039%=      5-min Rain = 0
KSC1 241916Z 15017G22KT 32/16 A2979 RMK A01 T03200164  RH  039%=      5-min Rain = 0
KSC1 241917Z 15015KT 32/17 A2979 RMK A01 T03170166  RH  040%=      5-min Rain = 0
KSC1 241918Z 15012KT 32/17 A2979 RMK A01 T03200168  RH  040%=      5-min Rain = 0
KSC1 241919Z 16011KT 33/17 A2979 RMK A01 T03250171  RH  040%=      5-min Rain = 0
KSC1 241920Z 16011KT 33/17 A2978 RMK A01 T03270171  RH  039%=      5-min Rain = 0
KSC1 241921Z 16016G25KT 33/17 A2978 RMK A01 T03280170  RH  039%=      5-min Rain = 0
KSC1 241922Z 15016G21KT 33/17 A2978 RMK A01 T03270169  RH  039%=      5-min Rain = 0
KSC1 241923Z 16014G19KT 32/17 A2978 RMK A01 T03240168  RH  039%=      5-min Rain = 0
KSC1 241924Z 16014KT 32/17 A2978 RMK A01 T03220167  RH  039%=      5-min Rain = 0
KSC1 241925Z 16010KT 32/17 A2978 RMK A01 T03210168  RH  040%=      5-min Rain = 0
KSC1 241926Z 16015G22KT 33/17 A2978 RMK A01 T03250169  RH  039%=      5-min Rain = 0
KSC1 241927Z 16015KT 33/17 A2978 RMK A01 T03280165  RH  038%=      5-min Rain = 0
KSC1 241928Z 15016G21KT 33/16 A2978 RMK A01 T03270164  RH  038%=      5-min Rain = 0
KSC1 241929Z 16015KT 33/16 A2978 RMK A01 T03250164  RH  038%=      5-min Rain = 0
KSC1 241930Z 16011KT 32/16 A2978 RMK A01 T03230164  RH  038%=      5-min Rain = 0
KSC1 241931Z 15010KT 32/17 A2978 RMK A01 T03230167  RH  039%=      5-min Rain = 0
KSC1 241932Z 15011G16KT 33/17 A2978 RMK A01 T03280168  RH  038%=      5-min Rain = 0
KSC1 241933Z 14016KT 33/17 A2978 RMK A01 T03280167  RH  038%=      5-min Rain = 0
KSC1 241934Z 16015KT 33/17 A2978 RMK A01 T03270168  RH  038%=      5-min Rain = 0
KSC1 241935Z 16013KT 32/17 A2978 RMK A01 T03240167  RH  039%=      5-min Rain = 0
KSC1 241936Z 16012KT 33/17 A2978 RMK A01 T03250171  RH  040%=      5-min Rain = 0
KSC1 241937Z 15013G20KT 33/17 A2977 RMK A01 T03280170  RH  039%=      5-min Rain = 0
KSC1 241938Z 14018G26KT 33/17 A2977 RMK A01 T03280167  RH  038%=      5-min Rain = 0
KSC1 241939Z 19013KT 33/17 A2977 RMK A01 T03270169  RH  039%=      5-min Rain = 0
KSC1 241940Z 17011G16KT 33/17 A2977 RMK A01 T03300167  RH  038%=      5-min Rain = 0
KSC1 241941Z 15013G18KT 33/17 A2977 RMK A01 T03330166  RH  037%=      5-min Rain = 0
KSC1 241942Z 17014KT 33/17 A2977 RMK A01 T03330166  RH  037%=      5-min Rain = 0
KSC1 241943Z 18011KT 33/17 A2977 RMK A01 T03290165  RH  037%=      5-min Rain = 0
KSC1 241944Z 16011KT 33/17 A2977 RMK A01 T03290168  RH  038%=      5-min Rain = 0
KSC1 241945Z 14015G20KT 33/17 A2977 RMK A01 T03310169  RH  038%=      5-min Rain = 0
KSC1 241946Z 14015G20KT 33/17 A2977 RMK A01 T03280167  RH  038%=      5-min Rain = 0
KSC1 241947Z 15015G21KT 32/17 A2977 RMK A01 T03240167  RH  039%=      5-min Rain = 0
KSC1 241948Z 17014G19KT 32/17 A2977 RMK A01 T03240167  RH  039%=      5-min Rain = 0
KSC1 241949Z 16015KT 33/16 A2977 RMK A01 T03260162  RH  038%=      5-min Rain = 0
KSC1 241950Z 18019KT 33/16 A2977 RMK A01 T03270162  RH  037%=      5-min Rain = 0
KSC1 241951Z 16015KT 33/16 A2977 RMK A01 T03260160  RH  037%=      5-min Rain = 0
KSC1 241952Z 17014KT 32/16 A2977 RMK A01 T03240161  RH  038%=      5-min Rain = 0
KSC1 241953Z 18013KT 32/16 A2976 RMK A01 T03200160  RH  038%=      5-min Rain = 0
KSC1 241954Z 16008G15KT 32/16 A2976 RMK A01 T03190162  RH  039%=      5-min Rain = 0
KSC1 241955Z 15009KT 32/16 A2976 RMK A01 T03210162  RH  038%=      5-min Rain = 0
KSC1 241956Z 15008KT 32/16 A2976 RMK A01 T03220162  RH  038%=      5-min Rain = 0
KSC1 241957Z 17012KT 32/16 A2976 RMK A01 T03230162  RH  038%=      5-min Rain = 0
KSC1 241958Z 17015KT 32/16 A2976 RMK A01 T03220161  RH  038%=      5-min Rain = 0
KSC1 241959Z 16015KT 32/16 A2976 RMK A01 T03190159  RH  038%=      5-min Rain = 0
KSC1 242000Z 17013KT 32/16 A2976 RMK A01 T03170159  RH  039%=      5-min Rain = 0
KSC1 242001Z 16012KT 31/16 A2976 RMK A01 T03140157  RH  039%=      5-min Rain = 0
KSC1 242002Z 15013KT 31/16 A2976 RMK A01 T03130159  RH  040%=      5-min Rain = 0
KSC1 242003Z 15016KT 31/16 A2976 RMK A01 T03130161  RH  040%=      5-min Rain = 0
KSC1 242004Z 16014G19KT 31/16 A2976 RMK A01 T03120162  RH  040%=      5-min Rain = 0
KSC1 242005Z 15013G19KT 31/16 A2976 RMK A01 T03110162  RH  041%=      5-min Rain = 0
KSC1 242006Z 16014KT 31/16 A2976 RMK A01 T03100161  RH  041%=      5-min Rain = 0
KSC1 242007Z 15013G18KT 31/16 A2976 RMK A01 T03090162  RH  041%=      5-min Rain = 0
KSC1 242008Z 17013KT 31/16 A2976 RMK A01 T03090163  RH  041%=      5-min Rain = 0
KSC1 242009Z 18014KT 31/16 A2976 RMK A01 T03100162  RH  041%=      5-min Rain = 0
KSC1 242010Z 17015KT 31/16 A2976 RMK A01 T03100162  RH  041%=      5-min Rain = 0
KSC1 242011Z 17014KT 31/16 A2976 RMK A01 T03090163  RH  041%=      5-min Rain = 0
KSC1 242012Z 17013KT 31/16 A2976 RMK A01 T03090164  RH  042%=      5-min Rain = 0
KSC1 242013Z 16012KT 31/16 A2976 RMK A01 T03090164  RH  042%=      5-min Rain = 0
KSC1 242014Z 15013KT 31/17 A2976 RMK A01 T03120165  RH  041%=      5-min Rain = 0
KSC1 242015Z 14014KT 32/16 A2976 RMK A01 T03150164  RH  040%=      5-min Rain = 0
KSC1 242016Z 16011KT 32/17 A2976 RMK A01 T03160165  RH  040%=      5-min Rain = 0
KSC1 242017Z 15009KT 32/17 A2975 RMK A01 T03200167  RH  040%=      5-min Rain = 0
KSC1 242018Z 17013G19KT 33/17 A2975 RMK A01 T03250168  RH  039%=      5-min Rain = 0
KSC1 242019Z 18014KT 33/17 A2975 RMK A01 T03270166  RH  038%=      5-min Rain = 0
KSC1 242020Z 18011G16KT 33/17 A2975 RMK A01 T03260165  RH  038%=      5-min Rain = 0
KSC1 242021Z 19011KT 32/16 A2975 RMK A01 T03220164  RH  039%=      5-min Rain = 0
KSC1 242022Z 17015G20KT 32/17 A2975 RMK A01 T03190165  RH  040%=      5-min Rain = 0
KSC1 242023Z 17012KT 32/16 A2975 RMK A01 T03210164  RH  039%=      5-min Rain = 0
KSC1 242024Z 17011KT 32/16 A2975 RMK A01 T03220163  RH  038%=      5-min Rain = 0
KSC1 242025Z 17013KT 32/16 A2975 RMK A01 T03230161  RH  038%=      5-min Rain = 0
KSC1 242026Z 18015KT 32/16 A2975 RMK A01 T03210158  RH  038%=      5-min Rain = 0
KSC1 242027Z 17012G18KT 32/16 A2975 RMK A01 T03190158  RH  038%=      5-min Rain = 0
KSC1 242028Z 18010G15KT 32/16 A2975 RMK A01 T03190159  RH  038%=      5-min Rain = 0
KSC1 242029Z 17014KT 32/16 A2975 RMK A01 T03210159  RH  038%=      5-min Rain = 0
KSC1 242030Z 17012KT 32/16 A2975 RMK A01 T03210158  RH  038%=      5-min Rain = 0
KSC1 242031Z 16015KT 32/16 A2975 RMK A01 T03210159  RH  038%=      5-min Rain = 0
KSC1 242032Z 16011G16KT 32/16 A2974 RMK A01 T03230157  RH  037%=      5-min Rain = 0
KSC1 242033Z 16012KT 33/16 A2974 RMK A01 T03270159  RH  037%=      5-min Rain = 0
KSC1 242034Z 16010KT 33/16 A2974 RMK A01 T03290160  RH  036%=      5-min Rain = 0
KSC1 242035Z 17011KT 33/16 A2974 RMK A01 T03280159  RH  036%=      5-min Rain = 0
KSC1 242036Z 18011G17KT 33/16 A2974 RMK A01 T03280159  RH  036%=      5-min Rain = 0
KSC1 242037Z 19012G17KT 33/16 A2974 RMK A01 T03280158  RH  036%=      5-min Rain = 0
KSC1 242038Z 17008KT 33/16 A2974 RMK A01 T03270163  RH  037%=      5-min Rain = 0
KSC1 242039Z 16013KT 33/17 A2974 RMK A01 T03270167  RH  038%=      5-min Rain = 0
KSC1 242040Z 16013KT 33/17 A2974 RMK A01 T03300166  RH  038%=      5-min Rain = 0
KSC1 242041Z 16009KT 33/17 A2973 RMK A01 T03290166  RH  038%=      5-min Rain = 0
KSC1 242042Z 17012KT 33/17 A2973 RMK A01 T03320167  RH  037%=      5-min Rain = 0
KSC1 242043Z 17012KT 33/17 A2973 RMK A01 T03340166  RH  037%=      5-min Rain = 0
KSC1 242044Z 18014KT 33/16 A2973 RMK A01 T03320164  RH  037%=      5-min Rain = 0
KSC1 242045Z 17016KT 33/16 A2973 RMK A01 T03270162  RH  037%=      5-min Rain = 0
KSC1 242046Z 17010KT 32/16 A2973 RMK A01 T03220161  RH  038%=      5-min Rain = 0
KSC1 242047Z 15011KT 32/16 A2973 RMK A01 T03220161  RH  038%=      5-min Rain = 0
KSC1 242048Z 15010G15KT 33/16 A2973 RMK A01 T03250161  RH  037%=      5-min Rain = 0
KSC1 242049Z 16012KT 33/16 A2973 RMK A01 T03280164  RH  037%=      5-min Rain = 0
KSC1 242050Z 15010KT 33/16 A2973 RMK A01 T03300163  RH  037%=      5-min Rain = 0
KSC1 242051Z 15014KT 33/16 A2973 RMK A01 T03300164  RH  037%=      5-min Rain = 0
KSC1 242052Z 18010KT 33/17 A2973 RMK A01 T03270165  RH  038%=      5-min Rain = 0
KSC1 242053Z 17013G18KT 33/16 A2973 RMK A01 T03260164  RH  038%=      5-min Rain = 0
KSC1 242054Z 16018KT 33/16 A2973 RMK A01 T03270163  RH  037%=      5-min Rain = 0
KSC1 242055Z 16012KT 33/17 A2973 RMK A01 T03270166  RH  038%=      5-min Rain = 0
KSC1 242056Z 15014KT 33/17 A2973 RMK A01 T03270166  RH  038%=      5-min Rain = 0
KSC1 242057Z 15013G18KT 33/17 A2973 RMK A01 T03270166  RH  038%=      5-min Rain = 0
KSC1 242058Z 14013KT 33/17 A2973 RMK A01 T03250165  RH  038%=      5-min Rain = 0
KSC1 242059Z 15012KT 32/17 A2973 RMK A01 T03240165  RH  039%=      5-min Rain = 0
KSC1 242100Z 14011KT 32/16 A2973 RMK A01 T03240164  RH  038%=      5-min Rain = 0
KSC1 242101Z 16012G19KT 32/17 A2973 RMK A01 T03230165  RH  039%=      5-min Rain = 0
KSC1 242102Z 16014KT 32/17 A2973 RMK A01 T03240166  RH  039%=      5-min Rain = 0
KSC1 242103Z 15016G21KT 32/17 A2973 RMK A01 T03230165  RH  039%=      5-min Rain = 0
KSC1 242104Z 15014KT 32/17 A2973 RMK A01 T03220165  RH  039%=      5-min Rain = 0
KSC1 242105Z 16015G21KT 32/17 A2973 RMK A01 T03230166  RH  039%=      5-min Rain = 0
KSC1 242106Z 16011G17KT 32/17 A2973 RMK A01 T03240166  RH  039%=      5-min Rain = 0
KSC1 242107Z 19015KT 33/17 A2973 RMK A01 T03260166  RH  038%=      5-min Rain = 0
KSC1 242108Z 18014KT 33/17 A2973 RMK A01 T03260166  RH  039%=      5-min Rain = 0
KSC1 242109Z 18014KT 33/17 A2973 RMK A01 T03270166  RH  038%=      5-min Rain = 0
KSC1 242110Z 19012G20KT 33/17 A2972 RMK A01 T03270168  RH  039%=      5-min Rain = 0
KSC1 242111Z 17012KT 33/17 A2973 RMK A01 T03290169  RH  038%=      5-min Rain = 0
KSC1 242112Z 18012KT 33/17 A2972 RMK A01 T03290169  RH  038%=      5-min Rain = 0
KSC1 242113Z 17012KT 33/17 A2972 RMK A01 T03270170  RH  039%=      5-min Rain = 0
KSC1 242114Z 16016KT 33/17 A2972 RMK A01 T03270169  RH  039%=      5-min Rain = 0
KSC1 242115Z 16016KT 33/17 A2972 RMK A01 T03280168  RH  038%=      5-min Rain = 0
KSC1 242116Z 16015G20KT 33/17 A2972 RMK A01 T03260168  RH  039%=      5-min Rain = 0
KSC1 242117Z 17014KT 32/17 A2972 RMK A01 T03220167  RH  039%=      5-min Rain = 0
KSC1 242118Z 18012G17KT 32/17 A2972 RMK A01 T03180166  RH  040%=      5-min Rain = 0
KSC1 242119Z 16015KT 32/17 A2972 RMK A01 T03170167  RH  041%=      5-min Rain = 0
KSC1 242120Z 15016G21KT 32/17 A2972 RMK A01 T03170165  RH  040%=      5-min Rain = 0
KSC1 242121Z 16018KT 32/16 A2972 RMK A01 T03180164  RH  040%=      5-min Rain = 0
KSC1 242122Z 16015KT 32/16 A2972 RMK A01 T03170164  RH  040%=      5-min Rain = 0
KSC1 242123Z 15014G19KT 32/16 A2971 RMK A01 T03170164  RH  040%=      5-min Rain = 0
KSC1 242124Z 15011KT 32/16 A2971 RMK A01 T03170164  RH  040%=      5-min Rain = 0
KSC1 242125Z 15011G16KT 32/17 A2971 RMK A01 T03170165  RH  040%=      5-min Rain = 0
KSC1 242126Z 18014KT 32/17 A2971 RMK A01 T03170165  RH  040%=      5-min Rain = 0
KSC1 242127Z 18015KT 32/16 A2972 RMK A01 T03160164  RH  040%=      5-min Rain = 0
KSC1 242128Z 17012KT 31/16 A2972 RMK A01 T03130162  RH  040%=      5-min Rain = 0
KSC1 242129Z 18013G18KT 31/16 A2972 RMK A01 T03120164  RH  041%=      5-min Rain = 0
KSC1 242130Z 18014KT 31/17 A2972 RMK A01 T03120167  RH  042%=      5-min Rain = 0
KSC1 242131Z 16013KT 31/17 A2972 RMK A01 T03120168  RH  042%=      5-min Rain = 0
KSC1 242132Z 16016KT 31/17 A2972 RMK A01 T03120169  RH  042%=      5-min Rain = 0
KSC1 242133Z 16017KT 31/17 A2972 RMK A01 T03110170  RH  043%=      5-min Rain = 0
KSC1 242134Z 16014KT 31/17 A2972 RMK A01 T03100171  RH  043%=      5-min Rain = 0
KSC1 242135Z 16012KT 31/17 A2972 RMK A01 T03090172  RH  044%=      5-min Rain = 0
KSC1 242136Z 16014KT 31/17 A2972 RMK A01 T03090171  RH  044%=      5-min Rain = 0
KSC1 242137Z 15010G15KT 31/17 A2972 RMK A01 T03080171  RH  044%=      5-min Rain = 0
KSC1 242138Z 14016KT 31/17 A2972 RMK A01 T03080172  RH  044%=      5-min Rain = 0
KSC1 242139Z 16014KT 31/17 A2972 RMK A01 T03100172  RH  044%=      5-min Rain = 0
KSC1 242140Z 16012G17KT 31/17 A2972 RMK A01 T03100172  RH  043%=      5-min Rain = 0
KSC1 242141Z 16012KT 31/17 A2972 RMK A01 T03100171  RH  043%=      5-min Rain = 0
KSC1 242142Z 15012KT 31/17 A2972 RMK A01 T03110172  RH  043%=      5-min Rain = 0
KSC1 242143Z 15010G16KT 31/17 A2972 RMK A01 T03120172  RH  043%=      5-min Rain = 0
KSC1 242144Z 14009KT 31/17 A2972 RMK A01 T03120171  RH  043%=      5-min Rain = 0
KSC1 242145Z 15013KT 31/17 A2971 RMK A01 T03130171  RH  043%=      5-min Rain = 0
KSC1 242146Z 15014KT 31/17 A2971 RMK A01 T03130170  RH  042%=      5-min Rain = 0
KSC1 242147Z 15012KT 31/17 A2971 RMK A01 T03110168  RH  042%=      5-min Rain = 0
KSC1 242148Z 15011KT 31/17 A2971 RMK A01 T03100169  RH  043%=      5-min Rain = 0
KSC1 242149Z 16014G19KT 31/17 A2971 RMK A01 T03100169  RH  043%=      5-min Rain = 0
KSC1 242150Z 16014G19KT 31/17 A2971 RMK A01 T03100169  RH  043%=      5-min Rain = 0
KSC1 242151Z 17013KT 31/17 A2971 RMK A01 T03100168  RH  043%=      5-min Rain = 0
KSC1 242152Z 19013KT 31/17 A2971 RMK A01 T03100168  RH  043%=      5-min Rain = 0
KSC1 242153Z 17012KT 31/17 A2971 RMK A01 T03090167  RH  043%=      5-min Rain = 0
KSC1 242154Z 17011KT 31/17 A2971 RMK A01 T03080168  RH  043%=      5-min Rain = 0
KSC1 242155Z 18012G17KT 31/17 A2971 RMK A01 T03080167  RH  043%=      5-min Rain = 0
KSC1 242156Z 17012KT 31/17 A2971 RMK A01 T03090165  RH  042%=      5-min Rain = 0
KSC1 242157Z 17013KT 31/16 A2971 RMK A01 T03080163  RH  042%=      5-min Rain = 0
KSC1 242158Z 16011G17KT 31/16 A2971 RMK A01 T03070162  RH  042%=      5-min Rain = 0
KSC1 242159Z 17011KT 31/16 A2971 RMK A01 T03070162  RH  042%=      5-min Rain = 0
KSC1 242200Z 17011KT 31/16 A2971 RMK A01 T03070162  RH  042%=      5-min Rain = 0
KSC1 242201Z 16010G15KT 31/16 A297 RMK A01 T03070162  RH  042%=      5-min Rain = 0
KSC1 242202Z 16012KT 31/16 A297 RMK A01 T03070160  RH  041%=      5-min Rain = 0
KSC1 242203Z 18010KT 31/16 A297 RMK A01 T03080160  RH  041%=      5-min Rain = 0
KSC1 242204Z 16011G16KT 31/16 A297 RMK A01 T03080160  RH  041%=      5-min Rain = 0
KSC1 242205Z 17013KT 31/16 A297 RMK A01 T03090161  RH  041%=      5-min Rain = 0
KSC1 242206Z 17012KT 31/16 A2971 RMK A01 T03090160  RH  041%=      5-min Rain = 0
KSC1 242207Z 17010KT 31/16 A2971 RMK A01 T03070160  RH  041%=      5-min Rain = 0
KSC1 242208Z 17010KT 31/16 A2971 RMK A01 T03060161  RH  042%=      5-min Rain = 0
KSC1 242209Z 16009KT 31/16 A2971 RMK A01 T03070162  RH  042%=      5-min Rain = 0
KSC1 242210Z 16009KT 31/16 A297 RMK A01 T03080163  RH  042%=      5-min Rain = 0
KSC1 242211Z 14012KT 31/16 A297 RMK A01 T03090162  RH  041%=      5-min Rain = 0
KSC1 242212Z 14012KT 31/16 A2971 RMK A01 T03090161  RH  041%=      5-min Rain = 0
KSC1 242213Z 15013KT 31/16 A297 RMK A01 T03080161  RH  041%=      5-min Rain = 0
KSC1 242214Z 17012KT 31/16 A2971 RMK A01 T03070161  RH  041%=      5-min Rain = 0
KSC1 242215Z 16011G17KT 31/16 A2971 RMK A01 T03060159  RH  041%=      5-min Rain = 0
KSC1 242216Z 18013G18KT 31/16 A2971 RMK A01 T03060159  RH  041%=      5-min Rain = 0
KSC1 242217Z 17011KT 31/16 A2971 RMK A01 T03060158  RH  041%=      5-min Rain = 0
KSC1 242218Z 16014KT 31/16 A297 RMK A01 T03050158  RH  041%=      5-min Rain = 0
KSC1 242219Z 17012KT 30/16 A2971 RMK A01 T03040158  RH  041%=      5-min Rain = 0
KSC1 242220Z 17012KT 30/16 A2971 RMK A01 T03040157  RH  041%=      5-min Rain = 0
KSC1 242221Z 16013KT 30/16 A2971 RMK A01 T03040157  RH  041%=      5-min Rain = 0
KSC1 242222Z 16011KT 30/16 A2971 RMK A01 T03030157  RH  041%=      5-min Rain = 0
KSC1 242223Z 16012KT 30/16 A2971 RMK A01 T03030157  RH  041%=      5-min Rain = 0
KSC1 242224Z 17012G17KT 30/16 A2971 RMK A01 T03020157  RH  041%=      5-min Rain = 0
KSC1 242225Z 18011KT 30/16 A2971 RMK A01 T03020156  RH  041%=      5-min Rain = 0
KSC1 242226Z 17008KT 30/16 A2971 RMK A01 T03020157  RH  042%=      5-min Rain = 0
KSC1 242227Z 17008KT 30/16 A2971 RMK A01 T03020157  RH  041%=      5-min Rain = 0
KSC1 242228Z 18011KT 30/16 A297 RMK A01 T03020156  RH  041%=      5-min Rain = 0
KSC1 242229Z 18008KT 30/16 A297 RMK A01 T03020156  RH  041%=      5-min Rain = 0
KSC1 242230Z 17008KT 30/16 A297 RMK A01 T03010156  RH  041%=      5-min Rain = 0
KSC1 242231Z 17007KT 30/16 A297 RMK A01 T03010156  RH  042%=      5-min Rain = 0
KSC1 242232Z 17009KT 30/16 A297 RMK A01 T03000156  RH  042%=      5-min Rain = 0
KSC1 242233Z 18009KT 30/16 A297 RMK A01 T03010157  RH  042%=      5-min Rain = 0
KSC1 242234Z 17009KT 30/16 A297 RMK A01 T03000158  RH  042%=      5-min Rain = 0
KSC1 242235Z 17008KT 30/16 A297 RMK A01 T02990158  RH  042%=      5-min Rain = 0
KSC1 242236Z 17009KT 30/16 A297 RMK A01 T02990159  RH  043%=      5-min Rain = 0
KSC1 242237Z 17008KT 30/16 A297 RMK A01 T02980159  RH  043%=      5-min Rain = 0
KSC1 242238Z 16009KT 30/16 A297 RMK A01 T02980160  RH  043%=      5-min Rain = 0
KSC1 242239Z 16008KT 30/16 A297 RMK A01 T02970159  RH  043%=      5-min Rain = 0
KSC1 242240Z 16007KT 30/16 A2969 RMK A01 T02970159  RH  043%=      5-min Rain = 0
KSC1 242241Z 15008KT 30/16 A2969 RMK A01 T02970159  RH  043%=      5-min Rain = 0
KSC1 242242Z 16007KT 30/16 A2969 RMK A01 T02970160  RH  044%=      5-min Rain = 0
KSC1 242243Z 16007KT 30/16 A2969 RMK A01 T02960160  RH  044%=      5-min Rain = 0
KSC1 242244Z 17006KT 30/16 A297 RMK A01 T02960160  RH  044%=      5-min Rain = 0
KSC1 242245Z 18009KT 30/16 A297 RMK A01 T02960160  RH  044%=      5-min Rain = 0
KSC1 242246Z 17009KT 30/16 A297 RMK A01 T02960159  RH  044%=      5-min Rain = 0
KSC1 242247Z 17009KT 30/16 A297 RMK A01 T02950159  RH  044%=      5-min Rain = 0
KSC1 242248Z 18007KT 30/16 A297 RMK A01 T02950159  RH  044%=      5-min Rain = 0
KSC1 242249Z 18009KT 30/16 A297 RMK A01 T02950159  RH  044%=      5-min Rain = 0
KSC1 242250Z 18009KT 30/16 A297 RMK A01 T02950159  RH  044%=      5-min Rain = 0
KSC1 242251Z 17007KT 30/16 A297 RMK A01 T02950159  RH  044%=      5-min Rain = 0
KSC1 242252Z 18008KT 30/16 A297 RMK A01 T02950159  RH  044%=      5-min Rain = 0
KSC1 242253Z 18009KT 29/16 A297 RMK A01 T02940159  RH  044%=      5-min Rain = 0
KSC1 242254Z 18010KT 30/16 A297 RMK A01 T02950159  RH  044%=      5-min Rain = 0
KSC1 242255Z 18008KT 29/16 A297 RMK A01 T02940159  RH  044%=      5-min Rain = 0
KSC1 242256Z 18007KT 29/16 A297 RMK A01 T02940159  RH  044%=      5-min Rain = 0
KSC1 242257Z 18009KT 29/16 A297 RMK A01 T02940159  RH  044%=      5-min Rain = 0
KSC1 242258Z 17009KT 29/16 A2971 RMK A01 T02940160  RH  044%=      5-min Rain = 0
KSC1 242259Z 18009KT 29/16 A2971 RMK A01 T02940160  RH  044%=      5-min Rain = 0
KSC1 242300Z 18010KT 29/16 A2971 RMK A01 T02940160  RH  044%=      5-min Rain = 0
KSC1 242301Z 18010KT 29/16 A2971 RMK A01 T02940161  RH  045%=      5-min Rain = 0
KSC1 242302Z 18010KT 29/16 A2971 RMK A01 T02940161  RH  045%=      5-min Rain = 0
KSC1 242303Z 19008KT 29/16 A2971 RMK A01 T02930161  RH  045%=      5-min Rain = 0
KSC1 242304Z 17011KT 29/16 A2971 RMK A01 T02930161  RH  045%=      5-min Rain = 0
KSC1 242305Z 18008KT 29/16 A297 RMK A01 T02930161  RH  045%=      5-min Rain = 0
KSC1 242306Z 17011KT 29/16 A297 RMK A01 T02930161  RH  045%=      5-min Rain = 0
KSC1 242307Z 18009KT 29/16 A297 RMK A01 T02930161  RH  045%=      5-min Rain = 0
KSC1 242308Z 17009KT 29/16 A297 RMK A01 T02920162  RH  045%=      5-min Rain = 0
KSC1 242309Z 17008G13KT 29/16 A297 RMK A01 T02920162  RH  045%=      5-min Rain = 0
KSC1 242310Z 16010KT 29/16 A297 RMK A01 T02920162  RH  045%=      5-min Rain = 0
KSC1 242311Z 17010KT 29/16 A297 RMK A01 T02920162  RH  045%=      5-min Rain = 0
KSC1 242312Z 17007KT 29/16 A297 RMK A01 T02920162  RH  046%=      5-min Rain = 0
KSC1 242313Z 17011KT 29/16 A297 RMK A01 T02910162  RH  046%=      5-min Rain = 0
KSC1 242314Z 17009KT 29/16 A297 RMK A01 T02910162  RH  046%=      5-min Rain = 0
KSC1 242315Z 16011G16KT 29/16 A297 RMK A01 T02910163  RH  046%=      5-min Rain = 0
KSC1 242316Z 16012G17KT 29/17 A297 RMK A01 T02910165  RH  047%=      5-min Rain = 0
KSC1 242317Z 17010G16KT 29/17 A297 RMK A01 T02890165  RH  047%=      5-min Rain = 0
KSC1 242318Z 17015KT 29/17 A297 RMK A01 T02880166  RH  048%=      5-min Rain = 0
KSC1 242319Z 17012KT 29/17 A297 RMK A01 T02870168  RH  049%=      5-min Rain = 0
KSC1 242320Z 17012G17KT 29/17 A297 RMK A01 T02850168  RH  049%=      5-min Rain = 0
KSC1 242321Z 17013G18KT 28/17 A297 RMK A01 T02840169  RH  050%=      5-min Rain = 0
KSC1 242322Z 17013G18KT 28/17 A297 RMK A01 T02830169  RH  050%=      5-min Rain = 0
KSC1 242323Z 17014G19KT 28/17 A297 RMK A01 T02820170  RH  050%=      5-min Rain = 0
KSC1 242324Z 18021G26KT 28/16 A2971 RMK A01 T02810164  RH  049%=      5-min Rain = 0
KSC1 242325Z 18027G38KT 27/14 A2972 RMK A01 T02670140  RH  046%=      5-min Rain = 0
KSC1 242326Z 17030G40KT 25/13 A2972 RMK A01 T02480130  RH  048%=      5-min Rain = 0
KSC1 242327Z 17026G37KT 23/13 A2972 RMK A01 T02340127  RH  051%=      5-min Rain = 0
KSC1 242328Z 17025G34KT 23/13 A2972 RMK A01 T02260126  RH  053%=      5-min Rain = 0
KSC1 242329Z 18024G32KT 22/13 A2972 RMK A01 T02180125  RH  056%=      5-min Rain = 0
KSC1 242330Z 17028G41KT 21/13 A2972 RMK A01 T02120127  RH  058%=      5-min Rain = 0
KSC1 242331Z 18031G43KT 20/13 A2972 RMK A01 T02040128  RH  062%=      5-min Rain = 0
KSC1 242332Z 19025G37KT 20/13 A2972 RMK A01 T01980131  RH  066%=      5-min Rain = 0
KSC1 242333Z 19021G30KT 19/13 A2972 RMK A01 T01930134  RH  069%=      5-min Rain = 0
KSC1 242334Z 19033G41KT 19/14 A2972 RMK A01 T01890136  RH  071%=      5-min Rain = 0
KSC1 242335Z 19028G35KT 19/14 A2973 RMK A01 T01860138  RH  074%=      5-min Rain = 0
KSC1 242336Z 19029G34KT 18/14 A2973 RMK A01 T01830141  RH  076%=      5-min Rain = 0
KSC1 242337Z 19024G31KT 18/14 A2974 RMK A01 T01800143  RH  079%=      5-min Rain = 0.01
KSC1 242338Z 19023G31KT 18/15 A2975 RMK A01 T01780148  RH  083%=      5-min Rain = 0.01
KSC1 242339Z 18022G27KT 18/15 A2976 RMK A01 T01760151  RH  085%=      5-min Rain = 0.01
KSC1 242340Z 20020G26KT 18/16 A2976 RMK A01 T01750156  RH  089%=      5-min Rain = 0.01
KSC1 242341Z 19021G29KT 17/16 A2977 RMK A01 T01730161  RH  092%=      5-min Rain = 0.01
KSC1 242342Z 20022G28KT 17/17 A2977 RMK A01 T01730165  RH  095%=      5-min Rain = 0.01
KSC1 242343Z 21028G45KT 17/17 A2978 RMK A01 T01730168  RH  097%=      5-min Rain = 0.01
KSC1 242344Z 21029G39KT 18/17 A2978 RMK A01 T01750165  RH  094%=      5-min Rain = 0.01
KSC1 242345Z 22031G41KT 18/16 A2978 RMK A01 T01780161  RH  090%=      5-min Rain = 0.01
KSC1 242346Z 23024G34KT 18/16 A2979 RMK A01 T01800158  RH  087%=      5-min Rain = 0.02
KSC1 242347Z 22028G36KT 18/16 A2979 RMK A01 T01790160  RH  088%=      5-min Rain = 0.01
KSC1 242348Z 22021G30KT 18/15 A2978 RMK A01 T01770151  RH  085%=      5-min Rain = 0.02
KSC1 242349Z 22023G30KT 17/14 A2977 RMK A01 T01740140  RH  081%=      5-min Rain = 0.03
KSC1 242350Z 23027G33KT 17/14 A2977 RMK A01 T01670136  RH  082%=      5-min Rain = 0.03
KSC1 242351Z 24026G33KT 16/14 A2977 RMK A01 T01610138  RH  086%=      5-min Rain = 0.02
KSC1 242352Z 25026G32KT 16/14 A2977 RMK A01 T01590138  RH  087%=      5-min Rain = 0.02
KSC1 242353Z 25024KT 16/14 A2977 RMK A01 T01580139  RH  088%=      5-min Rain = 0.01
KSC1 242354Z 25023G29KT 16/14 A2977 RMK A01 T01580139  RH  089%=      5-min Rain = 0.02
KSC1 242355Z 25022G27KT 16/14 A2977 RMK A01 T01570140  RH  089%=      5-min Rain = 0.01
KSC1 242356Z 24020G29KT 16/14 A2977 RMK A01 T01580137  RH  087%=      5-min Rain = 0.01
KSC1 242357Z 24013KT 16/14 A2977 RMK A01 T01630138  RH  085%=      5-min Rain = 0
KSC1 242358Z 24017G26KT 17/14 A2977 RMK A01 T01650138  RH  084%=      5-min Rain = 0.01
KSC1 242359Z 23015G21KT 17/14 A2977 RMK A01 T01670135  RH  082%=      5-min Rain = 0
KSC1 250000Z 23016KT 17/14 A2977 RMK A01 T01670136  RH  082%=      5-min Rain = 0
KSC1 250001Z 23016G24KT 17/14 A2977 RMK A01 T01670136  RH  082%=      5-min Rain = 0.01
KSC1 250002Z 23015G21KT 17/13 A2977 RMK A01 T01670133  RH  080%=      5-min Rain = 0
KSC1 250003Z 24017G22KT 17/13 A2977 RMK A01 T01690131  RH  078%=      5-min Rain = 0
KSC1 250004Z 24018KT 17/13 A2977 RMK A01 T01710128  RH  076%=      5-min Rain = 0.01
KSC1 250005Z 23016KT 17/12 A2977 RMK A01 T01740123  RH  072%=      5-min Rain = 0
KSC1 250006Z 23013KT 18/12 A2978 RMK A01 T01760124  RH  072%=      5-min Rain = 0
KSC1 250007Z 22014G19KT 18/13 A2978 RMK A01 T01750126  RH  073%=      5-min Rain = 0
KSC1 250008Z 23015KT 17/13 A2978 RMK A01 T01730126  RH  074%=      5-min Rain = 0
KSC1 250009Z 22013KT 17/13 A2978 RMK A01 T01730126  RH  074%=      5-min Rain = 0
KSC1 250010Z 22013KT 17/13 A2978 RMK A01 T01730129  RH  075%=      5-min Rain = 0
KSC1 250011Z 22015G20KT 17/13 A2978 RMK A01 T01730129  RH  075%=      5-min Rain = 0.01
KSC1 250012Z 22015G21KT 17/13 A2978 RMK A01 T01730131  RH  076%=      5-min Rain = 0
KSC1 250013Z 22017G22KT 17/13 A2977 RMK A01 T01720132  RH  077%=      5-min Rain = 0
KSC1 250014Z 22017G24KT 17/13 A2977 RMK A01 T01720133  RH  078%=      5-min Rain = 0
KSC1 250015Z 21019KT 17/13 A2978 RMK A01 T01730131  RH  076%=      5-min Rain = 0
KSC1 250016Z 21014G19KT 17/13 A2978 RMK A01 T01740132  RH  076%=      5-min Rain = 0
KSC1 250017Z 22014KT 17/13 A2978 RMK A01 T01740132  RH  076%=      5-min Rain = 0
KSC1 250018Z 22015G20KT 17/13 A2978 RMK A01 T01740133  RH  077%=      5-min Rain = 0
KSC1 250019Z 22013G18KT 17/13 A2978 RMK A01 T01740134  RH  077%=      5-min Rain = 0
KSC1 250020Z 22015KT 18/13 A2978 RMK A01 T01750134  RH  077%=      5-min Rain = 0
KSC1 250021Z 22015G22KT 17/14 A2978 RMK A01 T01740135  RH  078%=      5-min Rain = 0
KSC1 250022Z 21019G24KT 18/13 A2978 RMK A01 T01750133  RH  077%=      5-min Rain = 0
KSC1 250023Z 21015G20KT 18/13 A2978 RMK A01 T01770133  RH  076%=      5-min Rain = 0.01
KSC1 250024Z 22016G21KT 18/14 A2978 RMK A01 T01770135  RH  076%=      5-min Rain = 0
KSC1 250025Z 22014KT 18/14 A2978 RMK A01 T01760137  RH  077%=      5-min Rain = 0
KSC1 250026Z 21013G18KT 18/14 A2978 RMK A01 T01750137  RH  079%=      5-min Rain = 0
KSC1 250027Z 21012KT 17/14 A2978 RMK A01 T01740137  RH  079%=      5-min Rain = 0
KSC1 250028Z 21014KT 17/14 A2978 RMK A01 T01740138  RH  079%=      5-min Rain = 0
KSC1 250029Z 21012KT 17/14 A2978 RMK A01 T01730138  RH  080%=      5-min Rain = 0
KSC1 250030Z 21012G17KT 17/14 A2978 RMK A01 T01730140  RH  081%=      5-min Rain = 0.01
KSC1 250031Z 21012KT 17/14 A2979 RMK A01 T01730141  RH  081%=      5-min Rain = 0
KSC1 250032Z 21010KT 17/14 A2979 RMK A01 T01720142  RH  083%=      5-min Rain = 0
KSC1 250033Z 21010KT 17/14 A2979 RMK A01 T01710142  RH  083%=      5-min Rain = 0
KSC1 250034Z 21013G19KT 17/14 A2979 RMK A01 T01710141  RH  082%=      5-min Rain = 0
KSC1 250035Z 21013KT 17/14 A2979 RMK A01 T01720140  RH  082%=      5-min Rain = 0
KSC1 250036Z 21013KT 17/14 A2979 RMK A01 T01720140  RH  082%=      5-min Rain = 0
KSC1 250037Z 21011KT 17/14 A2979 RMK A01 T01720141  RH  082%=      5-min Rain = 0.01
KSC1 250038Z 21013G18KT 17/14 A2979 RMK A01 T01720143  RH  083%=      5-min Rain = 0
KSC1 250039Z 21012KT 17/14 A2979 RMK A01 T01710142  RH  083%=      5-min Rain = 0
KSC1 250040Z 21014G21KT 17/14 A2979 RMK A01 T01710139  RH  081%=      5-min Rain = 0
KSC1 250041Z 21013KT 17/14 A2979 RMK A01 T01720141  RH  082%=      5-min Rain = 0
KSC1 250042Z 21013KT 17/14 A2979 RMK A01 T01720141  RH  082%=      5-min Rain = 0.01
KSC1 250043Z 22011KT 17/14 A2979 RMK A01 T01720141  RH  082%=      5-min Rain = 0
KSC1 250044Z 21014KT 17/14 A2979 RMK A01 T01710140  RH  082%=      5-min Rain = 0
KSC1 250045Z 22012KT 17/14 A2979 RMK A01 T01720140  RH  082%=      5-min Rain = 0
KSC1 250046Z 21011G17KT 17/14 A2979 RMK A01 T01710140  RH  082%=      5-min Rain = 0
KSC1 250047Z 21012KT 17/14 A2979 RMK A01 T01720141  RH  082%=      5-min Rain = 0
KSC1 250048Z 21011G16KT 17/14 A2979 RMK A01 T01710141  RH  082%=      5-min Rain = 0.01
KSC1 250049Z 21011KT 17/14 A2979 RMK A01 T01710140  RH  082%=      5-min Rain = 0
KSC1 250050Z 21009KT 17/14 A2979 RMK A01 T01710142  RH  083%=      5-min Rain = 0
KSC1 250051Z 21010KT 17/14 A2979 RMK A01 T01700142  RH  083%=      5-min Rain = 0
KSC1 250052Z 21010KT 17/14 A2979 RMK A01 T01700140  RH  083%=      5-min Rain = 0.01
KSC1 250053Z 22008KT 17/14 A298 RMK A01 T01700140  RH  083%=      5-min Rain = 0
KSC1 250054Z 22009G14KT 17/14 A298 RMK A01 T01700140  RH  082%=      5-min Rain = 0
KSC1 250055Z 21008KT 17/14 A298 RMK A01 T01700139  RH  082%=      5-min Rain = 0
KSC1 250056Z 21009KT 17/14 A298 RMK A01 T01700139  RH  082%=      5-min Rain = 0.01
KSC1 250057Z 21008KT 17/14 A298 RMK A01 T01700139  RH  082%=      5-min Rain = 0
KSC1 250058Z 20006KT 17/14 A298 RMK A01 T01700139  RH  082%=      5-min Rain = 0
KSC1 250059Z 19006KT 17/14 A298 RMK A01 T01700139  RH  082%=      5-min Rain = 0.01
KSC1 250100Z 19007KT 17/14 A298 RMK A01 T01700141  RH  083%=      5-min Rain = 0
KSC1 250101Z 20007KT 17/14 A298 RMK A01 T01700143  RH  084%=      5-min Rain = 0
KSC1 250102Z 20007KT 17/14 A298 RMK A01 T01700144  RH  084%=      5-min Rain = 0.01
KSC1 250103Z 20007KT 17/15 A2981 RMK A01 T01690145  RH  086%=      5-min Rain = 0
KSC1 250104Z 19006KT 17/15 A2981 RMK A01 T01680146  RH  086%=      5-min Rain = 0
KSC1 250105Z 19006KT 17/15 A2981 RMK A01 T01680148  RH  087%=      5-min Rain = 0.01
KSC1 250106Z 19006KT 17/15 A2981 RMK A01 T01690149  RH  088%=      5-min Rain = 0
KSC1 250107Z 19006KT 17/15 A2981 RMK A01 T01680151  RH  090%=      5-min Rain = 0
KSC1 250108Z 18004KT 17/15 A2981 RMK A01 T01680151  RH  090%=      5-min Rain = 0.01
KSC1 250109Z 17006KT 17/15 A2981 RMK A01 T01680151  RH  090%=      5-min Rain = 0
KSC1 250110Z 15007KT 17/15 A2981 RMK A01 T01680153  RH  091%=      5-min Rain = 0
KSC1 250111Z 14008KT 17/16 A2981 RMK A01 T01680156  RH  093%=      5-min Rain = 0
KSC1 250112Z 15010KT 17/16 A2981 RMK A01 T01670155  RH  093%=      5-min Rain = 0.01
KSC1 250113Z 15008KT 17/16 A298 RMK A01 T01670156  RH  093%=      5-min Rain = 0
KSC1 250114Z 15007KT 17/16 A298 RMK A01 T01670156  RH  093%=      5-min Rain = 0.01
KSC1 250115Z 16006KT 17/15 A298 RMK A01 T01670151  RH  090%=      5-min Rain = 0
KSC1 250116Z 18007KT 17/15 A298 RMK A01 T01680150  RH  089%=      5-min Rain = 0.01
KSC1 250117Z 20006KT 17/15 A298 RMK A01 T01680148  RH  088%=      5-min Rain = 0
KSC1 250118Z 21007KT 17/15 A2979 RMK A01 T01680146  RH  087%=      5-min Rain = 0.01
KSC1 250119Z 22007KT 17/14 A2979 RMK A01 T01680141  RH  084%=      5-min Rain = 0
KSC1 250120Z 22007KT 17/14 A2979 RMK A01 T01690137  RH  081%=      5-min Rain = 0.01
KSC1 250121Z 21006KT 17/14 A2979 RMK A01 T01710137  RH  080%=      5-min Rain = 0
KSC1 250122Z 22006KT 17/14 A2978 RMK A01 T01710138  RH  081%=      5-min Rain = 0
KSC1 250123Z 20006KT 17/14 A2978 RMK A01 T01700140  RH  083%=      5-min Rain = 0
KSC1 250124Z 21005KT 17/14 A2978 RMK A01 T01680141  RH  084%=      5-min Rain = 0.01
KSC1 250125Z 20004KT 17/14 A2978 RMK A01 T01680141  RH  084%=      5-min Rain = 0
KSC1 250126Z 19005KT 17/14 A2978 RMK A01 T01670143  RH  086%=      5-min Rain = 0
KSC1 250127Z 18004KT 17/15 A2977 RMK A01 T01660145  RH  087%=      5-min Rain = 0
KSC1 250128Z 17004KT 17/15 A2977 RMK A01 T01660150  RH  090%=      5-min Rain = 0.01
KSC1 250129Z 16004KT 17/15 A2977 RMK A01 T01660152  RH  091%=      5-min Rain = 0
KSC1 250130Z 14006KT 17/16 A2976 RMK A01 T01650155  RH  094%=      5-min Rain = 0
KSC1 250131Z 12007KT 16/16 A2976 RMK A01 T01640159  RH  097%=      5-min Rain = 0
KSC1 250132Z 12007KT 16/16 A2976 RMK A01 T01640162  RH  099%=      5-min Rain = 0
KSC1 250133Z 13007KT 16/16 A2975 RMK A01 T01640162  RH  099%=      5-min Rain = 0
KSC1 250134Z 13005KT 16/16 A2975 RMK A01 T01640162  RH  098%=      5-min Rain = 0
KSC1 250135Z 13005KT 16/16 A2975 RMK A01 T01640163  RH  099%=      5-min Rain = 0.01
KSC1 250136Z 15005KT 16/16 A2974 RMK A01 T01640164  RH  100%=      5-min Rain = 0
KSC1 250137Z 15005KT 16/16 A2974 RMK A01 T01640164  RH  100%=      5-min Rain = 0
KSC1 250138Z 15004KT 17/17 A2973 RMK A01 T01650165  RH  100%=      5-min Rain = 0
KSC1 250139Z 15004KT 16/16 A2973 RMK A01 T01640164  RH  100%=      5-min Rain = 0
KSC1 250140Z 16003KT 16/16 A2973 RMK A01 T01640164  RH  100%=      5-min Rain = 0
KSC1 250141Z 16004KT 16/16 A2972 RMK A01 T01640164  RH  100%=      5-min Rain = 0.01
KSC1 250142Z 15004KT 16/16 A2972 RMK A01 T01640164  RH  100%=      5-min Rain = 0
KSC1 250143Z 15005KT 16/16 A2972 RMK A01 T01640164  RH  100%=      5-min Rain = 0
KSC1 250144Z 16005KT 16/16 A2971 RMK A01 T01630164  RH  100%=      5-min Rain = 0
KSC1 250145Z 16003KT 16/16 A2971 RMK A01 T01640164  RH  100%=      5-min Rain = 0
KSC1 250146Z 13002KT 16/16 A2971 RMK A01 T01630164  RH  100%=      5-min Rain = 0
KSC1 250147Z 10001KT 16/16 A297 RMK A01 T01630163  RH  100%=      5-min Rain = 0
KSC1 250148Z 03001KT 16/16 A297 RMK A01 T01630164  RH  100%=      5-min Rain = 0
KSC1 250149Z 00005KT 16/16 A297 RMK A01 T01630163  RH  100%=      5-min Rain = 0
KSC1 250150Z 00007KT 16/16 A297 RMK A01 T01630163  RH  100%=      5-min Rain = 0
KSC1 250151Z 01007KT 16/16 A297 RMK A01 T01630163  RH  100%=      5-min Rain = 0
KSC1 250152Z 02006KT 16/16 A297 RMK A01 T01620162  RH  100%=      5-min Rain = 0
KSC1 250153Z 00003KT 16/16 A2969 RMK A01 T01620162  RH  100%=      5-min Rain = 0
KSC1 250154Z 01002KT 16/16 A2969 RMK A01 T01610161  RH  100%=      5-min Rain = 0
KSC1 250155Z 03003KT 16/16 A2969 RMK A01 T01610161  RH  100%=      5-min Rain = 0
KSC1 250156Z 04003KT 16/16 A2969 RMK A01 T01610161  RH  100%=      5-min Rain = 0
KSC1 250157Z 05003KT 16/16 A2969 RMK A01 T01610161  RH  100%=      5-min Rain = 0
KSC1 250158Z 05004KT 16/16 A2969 RMK A01 T01610161  RH  100%=      5-min Rain = 0
KSC1 250159Z 04003KT 16/16 A2969 RMK A01 T01610161  RH  100%=      5-min Rain = 0
KSC1 250200Z 03002KT 16/16 A2968 RMK A01 T01600160  RH  100%=      5-min Rain = 0
KSC1 250201Z 02001KT 16/16 A2968 RMK A01 T01600161  RH  100%=      5-min Rain = 0
KSC1 250202Z 02002KT 16/16 A2968 RMK A01 T01600160  RH  100%=      5-min Rain = 0
KSC1 250203Z 05002KT 16/16 A2968 RMK A01 T01600161  RH  100%=      5-min Rain = 0
KSC1 250204Z 07002KT 16/16 A2967 RMK A01 T01600160  RH  100%=      5-min Rain = 0
KSC1 250205Z 09002KT 16/16 A2967 RMK A01 T01600160  RH  100%=      5-min Rain = 0
KSC1 250206Z 10002KT 16/16 A2967 RMK A01 T01600160  RH  100%=      5-min Rain = 0
KSC1 250207Z 10003KT 16/16 A2967 RMK A01 T01600160  RH  100%=      5-min Rain = 0
KSC1 250208Z 11002KT 16/16 A2967 RMK A01 T01600160  RH  100%=      5-min Rain = 0
KSC1 250209Z 14002KT 16/16 A2967 RMK A01 T01600160  RH  100%=      5-min Rain = 0
KSC1 250210Z 19002KT 16/16 A2968 RMK A01 T01600160  RH  100%=      5-min Rain = 0
KSC1 250211Z 19002KT 16/16 A2968 RMK A01 T01600160  RH  100%=      5-min Rain = 0
KSC1 250212Z 19002KT 16/16 A2968 RMK A01 T01590159  RH  100%=      5-min Rain = 0
KSC1 250213Z 20002KT 16/16 A2968 RMK A01 T01590159  RH  100%=      5-min Rain = 0
KSC1 250214Z 23002KT 16/16 A2968 RMK A01 T01590159  RH  100%=      5-min Rain = 0
KSC1 250215Z 25003KT 16/16 A2968 RMK A01 T01590159  RH  100%=      5-min Rain = 0
KSC1 250216Z 25003KT 16/16 A2968 RMK A01 T01590159  RH  100%=      5-min Rain = 0
KSC1 250217Z 25003KT 16/16 A2967 RMK A01 T01590159  RH  100%=      5-min Rain = 0
KSC1 250218Z 23002KT 16/16 A2967 RMK A01 T01590159  RH  100%=      5-min Rain = 0
KSC1 250219Z 21001KT 16/16 A2967 RMK A01 T01590159  RH  100%=      5-min Rain = 0
KSC1 250220Z 19001KT 16/16 A2967 RMK A01 T01580158  RH  100%=      5-min Rain = 0
KSC1 250221Z 18001KT 16/16 A2967 RMK A01 T01590159  RH  100%=      5-min Rain = 0
KSC1 250222Z 20001KT 16/16 A2967 RMK A01 T01580159  RH  100%=      5-min Rain = 0
KSC1 250223Z 21000KT 16/16 A2967 RMK A01 T01580159  RH  100%=      5-min Rain = 0
KSC1 250224Z 00000KT 16/16 A2967 RMK A01 T01580159  RH  100%=      5-min Rain = 0
KSC1 250225Z 00000KT 16/16 A2967 RMK A01 T01590159  RH  100%=      5-min Rain = 0
KSC1 250226Z 31000KT 16/16 A2967 RMK A01 T01580159  RH  100%=      5-min Rain = 0
KSC1 250227Z 31002KT 16/16 A2967 RMK A01 T01590159  RH  100%=      5-min Rain = 0
KSC1 250228Z 30004KT 16/16 A2967 RMK A01 T01590159  RH  100%=      5-min Rain = 0
KSC1 250229Z 30007KT 16/16 A2968 RMK A01 T01590159  RH  100%=      5-min Rain = 0
KSC1 250230Z 30008KT 16/16 A2968 RMK A01 T01600160  RH  100%=      5-min Rain = 0
KSC1 250231Z 30006KT 16/16 A2967 RMK A01 T01600160  RH  100%=      5-min Rain = 0
KSC1 250232Z 31003KT 16/16 A2967 RMK A01 T01600161  RH  100%=      5-min Rain = 0
KSC1 250233Z 35002KT 16/16 A2966 RMK A01 T01600161  RH  100%=      5-min Rain = 0
KSC1 250234Z 04002KT 16/16 A2966 RMK A01 T01600160  RH  100%=      5-min Rain = 0
KSC1 250235Z 06002KT 16/16 A2965 RMK A01 T01600160  RH  100%=      5-min Rain = 0
KSC1 250236Z 07003KT 16/16 A2964 RMK A01 T01600160  RH  100%=      5-min Rain = 0
KSC1 250237Z 08005KT 16/16 A2963 RMK A01 T01600160  RH  100%=      5-min Rain = 0
KSC1 250238Z 08007KT 16/16 A2963 RMK A01 T01600160  RH  100%=      5-min Rain = 0
KSC1 250239Z 08007KT 16/16 A2962 RMK A01 T01600160  RH  100%=      5-min Rain = 0
KSC1 250240Z 08006KT 16/16 A2962 RMK A01 T01600160  RH  100%=      5-min Rain = 0
KSC1 250241Z 08006KT 16/16 A2962 RMK A01 T01600160  RH  100%=      5-min Rain = 0
KSC1 250242Z 07005KT 16/16 A2962 RMK A01 T01600160  RH  100%=      5-min Rain = 0
KSC1 250243Z 07005KT 16/16 A2961 RMK A01 T01600160  RH  100%=      5-min Rain = 0
KSC1 250244Z 08005KT 16/16 A2961 RMK A01 T01600161  RH  100%=      5-min Rain = 0
KSC1 250245Z 09004KT 16/16 A2961 RMK A01 T01600160  RH  100%=      5-min Rain = 0
KSC1 250246Z 08004KT 16/16 A2961 RMK A01 T01600160  RH  100%=      5-min Rain = 0
KSC1 250247Z 08003KT 16/16 A2962 RMK A01 T01600160  RH  100%=      5-min Rain = 0
KSC1 250248Z 08003KT 16/16 A2961 RMK A01 T01610161  RH  100%=      5-min Rain = 0
KSC1 250249Z 07005KT 16/16 A2962 RMK A01 T01600160  RH  100%=      5-min Rain = 0
KSC1 250250Z 08005KT 16/16 A2961 RMK A01 T01600161  RH  100%=      5-min Rain = 0
KSC1 250251Z 07004KT 16/16 A2961 RMK A01 T01610161  RH  100%=      5-min Rain = 0
KSC1 250252Z 07004KT 16/16 A2961 RMK A01 T01610161  RH  100%=      5-min Rain = 0
KSC1 250253Z 07003KT 16/16 A2961 RMK A01 T01610161  RH  100%=      5-min Rain = 0
KSC1 250254Z 06003KT 16/16 A2961 RMK A01 T01620162  RH  100%=      5-min Rain = 0
KSC1 250255Z 06004KT 16/16 A2961 RMK A01 T01620162  RH  100%=      5-min Rain = 0
KSC1 250256Z 06004KT 16/16 A2961 RMK A01 T01620162  RH  100%=      5-min Rain = 0
KSC1 250257Z 06004KT 16/16 A2961 RMK A01 T01620162  RH  100%=      5-min Rain = 0
KSC1 250258Z 06005KT 16/16 A2961 RMK A01 T01620163  RH  100%=      5-min Rain = 0
KSC1 250259Z 06005KT 16/16 A2961 RMK A01 T01630163  RH  100%=      5-min Rain = 0
KSC1 250300Z 07004KT 16/16 A2961 RMK A01 T01630163  RH  100%=      5-min Rain = 0
KSC1 250301Z 09004KT 16/16 A2961 RMK A01 T01630163  RH  100%=      5-min Rain = 0
KSC1 250302Z 09003KT 16/16 A2961 RMK A01 T01640164  RH  100%=      5-min Rain = 0
KSC1 250303Z 08002KT 16/16 A2962 RMK A01 T01640164  RH  100%=      5-min Rain = 0
KSC1 250304Z 07002KT 16/16 A2962 RMK A01 T01640164  RH  100%=      5-min Rain = 0
KSC1 250305Z 07002KT 16/16 A2962 RMK A01 T01640164  RH  100%=      5-min Rain = 0
KSC1 250306Z 06001KT 16/16 A2962 RMK A01 T01640164  RH  100%=      5-min Rain = 0
KSC1 250307Z 05001KT 16/16 A2962 RMK A01 T01640164  RH  100%=      5-min Rain = 0
KSC1 250308Z 05002KT 16/16 A2963 RMK A01 T01640164  RH  100%=      5-min Rain = 0
KSC1 250309Z 03001KT 16/16 A2963 RMK A01 T01640164  RH  100%=      5-min Rain = 0
KSC1 250310Z 04002KT 17/17 A2963 RMK A01 T01650165  RH  100%=      5-min Rain = 0
KSC1 250311Z 06002KT 17/17 A2962 RMK A01 T01650165  RH  100%=      5-min Rain = 0
KSC1 250312Z 06002KT 17/17 A2962 RMK A01 T01650165  RH  100%=      5-min Rain = 0
KSC1 250313Z 05002KT 17/17 A2962 RMK A01 T01660166  RH  100%=      5-min Rain = 0
KSC1 250314Z 00001KT 17/17 A2963 RMK A01 T01660166  RH  100%=      5-min Rain = 0
KSC1 250315Z 32002KT 17/17 A2963 RMK A01 T01660166  RH  100%=      5-min Rain = 0
KSC1 250316Z 31002KT 17/17 A2963 RMK A01 T01660166  RH  100%=      5-min Rain = 0
KSC1 250317Z 31001KT 17/17 A2964 RMK A01 T01660166  RH  100%=      5-min Rain = 0
KSC1 250318Z 10001KT 17/17 A2963 RMK A01 T01660166  RH  100%=      5-min Rain = 0
KSC1 250319Z 12002KT 17/17 A2963 RMK A01 T01660166  RH  100%=      5-min Rain = 0
KSC1 250320Z 12003KT 17/17 A2963 RMK A01 T01670167  RH  100%=      5-min Rain = 0
KSC1 250321Z 13003KT 17/17 A2963 RMK A01 T01670167  RH  100%=      5-min Rain = 0
KSC1 250322Z 15003KT 17/17 A2964 RMK A01 T01670167  RH  100%=      5-min Rain = 0
KSC1 250323Z 19003KT 17/17 A2964 RMK A01 T01670167  RH  100%=      5-min Rain = 0
KSC1 250324Z 22003KT 17/17 A2965 RMK A01 T01670167  RH  100%=      5-min Rain = 0
KSC1 250325Z 24004KT 17/17 A2965 RMK A01 T01670167  RH  100%=      5-min Rain = 0
KSC1 250326Z 24005KT 17/17 A2965 RMK A01 T01660166  RH  100%=      5-min Rain = 0
KSC1 250327Z 24005KT 17/17 A2966 RMK A01 T01660166  RH  100%=      5-min Rain = 0
KSC1 250328Z 24005KT 17/17 A2966 RMK A01 T01660167  RH  100%=      5-min Rain = 0
KSC1 250329Z 25004KT 17/17 A2966 RMK A01 T01660166  RH  100%=      5-min Rain = 0
KSC1 250330Z 25003KT 17/17 A2967 RMK A01 T01660166  RH  100%=      5-min Rain = 0
KSC1 250331Z 24003KT 17/17 A2967 RMK A01 T01660166  RH  100%=      5-min Rain = 0
KSC1 250332Z 30002KT 17/17 A2967 RMK A01 T01670167  RH  100%=      5-min Rain = 0
KSC1 250333Z 31002KT 17/17 A2967 RMK A01 T01670167  RH  100%=      5-min Rain = 0
KSC1 250334Z 34001KT 17/17 A2967 RMK A01 T01660167  RH  100%=      5-min Rain = 0
KSC1 250335Z 00002KT 17/17 A2968 RMK A01 T01670167  RH  100%=      5-min Rain = 0
KSC1 250336Z 03003KT 17/17 A2968 RMK A01 T01660167  RH  100%=      5-min Rain = 0
KSC1 250337Z 05004KT 17/17 A2968 RMK A01 T01670166  RH  100%=      5-min Rain = 0
KSC1 250338Z 06004KT 17/17 A2968 RMK A01 T01700169  RH  100%=      5-min Rain = 0
KSC1 250339Z 06004KT 17/17 A2968 RMK A01 T01700167  RH  098%=      5-min Rain = 0
KSC1 250340Z 07004KT 17/17 A2969 RMK A01 T01710169  RH  099%=      5-min Rain = 0
KSC1 250341Z 07004KT 17/17 A2969 RMK A01 T01710170  RH  100%=      5-min Rain = 0
KSC1 250342Z 06006KT 17/17 A2969 RMK A01 T01710166  RH  097%=      5-min Rain = 0
KSC1 250343Z 08006KT 17/16 A2969 RMK A01 T01730157  RH  090%=      5-min Rain = 0
KSC1 250344Z 08006KT 18/16 A297 RMK A01 T01760159  RH  090%=      5-min Rain = 0
KSC1 250345Z 09006KT 18/16 A297 RMK A01 T01760159  RH  090%=      5-min Rain = 0
KSC1 250346Z 09006KT 18/16 A297 RMK A01 T01760161  RH  091%=      5-min Rain = 0
KSC1 250347Z 11006KT 18/16 A297 RMK A01 T01760161  RH  091%=      5-min Rain = 0
KSC1 250348Z 11006KT 18/16 A2971 RMK A01 T01760159  RH  090%=      5-min Rain = 0
KSC1 250349Z 11005KT 18/16 A2971 RMK A01 T01760157  RH  088%=      5-min Rain = 0
KSC1 250350Z 11005KT 18/16 A2971 RMK A01 T01770157  RH  088%=      5-min Rain = 0
KSC1 250351Z 12004KT 18/16 A2971 RMK A01 T01770156  RH  088%=      5-min Rain = 0
KSC1 250352Z 11004KT 18/16 A2972 RMK A01 T01770156  RH  087%=      5-min Rain = 0
KSC1 250353Z 12004KT 18/16 A2972 RMK A01 T01770157  RH  088%=      5-min Rain = 0
KSC1 250354Z 11004KT 18/16 A2973 RMK A01 T01770158  RH  088%=      5-min Rain = 0
KSC1 250355Z 12004KT 18/16 A2973 RMK A01 T01770157  RH  088%=      5-min Rain = 0
KSC1 250356Z 12004KT 18/16 A2973 RMK A01 T01770155  RH  087%=      5-min Rain = 0
KSC1 250357Z 11005KT 18/16 A2973 RMK A01 T01770156  RH  087%=      5-min Rain = 0
KSC1 250358Z 11005KT 18/15 A2973 RMK A01 T01770151  RH  085%=      5-min Rain = 0
KSC1 250359Z 11004KT 18/15 A2973 RMK A01 T01780151  RH  084%=      5-min Rain = 0
KSC1 250400Z 12004KT 18/15 A2974 RMK A01 T01790151  RH  084%=      5-min Rain = 0
KSC1 250401Z 11003KT 18/15 A2974 RMK A01 T01790151  RH  084%=      5-min Rain = 0
KSC1 250402Z 11002KT 18/15 A2974 RMK A01 T01790153  RH  085%=      5-min Rain = 0
KSC1 250403Z 09002KT 18/16 A2975 RMK A01 T01790155  RH  086%=      5-min Rain = 0
KSC1 250404Z 11003KT 18/15 A2975 RMK A01 T01790153  RH  085%=      5-min Rain = 0
KSC1 250405Z 12003KT 18/16 A2975 RMK A01 T01790156  RH  086%=      5-min Rain = 0
KSC1 250406Z 12002KT 18/15 A2975 RMK A01 T01790153  RH  085%=      5-min Rain = 0
KSC1 250407Z 13003KT 18/15 A2975 RMK A01 T01790150  RH  083%=      5-min Rain = 0
KSC1 250408Z 10003KT 18/15 A2976 RMK A01 T01790149  RH  082%=      5-min Rain = 0
KSC1 250409Z 08004KT 18/15 A2976 RMK A01 T01800148  RH  081%=      5-min Rain = 0
KSC1 250410Z 07004KT 18/15 A2976 RMK A01 T01810147  RH  080%=      5-min Rain = 0
KSC1 250411Z 07004KT 18/15 A2977 RMK A01 T01820147  RH  080%=      5-min Rain = 0
KSC1 250412Z 07007KT 18/15 A2977 RMK A01 T01820145  RH  079%=      5-min Rain = 0
KSC1 250413Z 09005KT 18/14 A2977 RMK A01 T01830142  RH  077%=      5-min Rain = 0
KSC1 250414Z 08005KT 18/14 A2977 RMK A01 T01840143  RH  077%=      5-min Rain = 0
KSC1 250415Z 06006KT 18/14 A2978 RMK A01 T01840142  RH  076%=      5-min Rain = 0
KSC1 250416Z 04007KT 19/14 A2979 RMK A01 T01850144  RH  077%=      5-min Rain = 0
KSC1 250417Z 04007KT 18/15 A298 RMK A01 T01840146  RH  078%=      5-min Rain = 0
KSC1 250418Z 04006KT 18/14 A298 RMK A01 T01840144  RH  078%=      5-min Rain = 0
KSC1 250419Z 04006KT 18/14 A298 RMK A01 T01830143  RH  078%=      5-min Rain = 0
KSC1 250420Z 04006KT 18/14 A298 RMK A01 T01830143  RH  077%=      5-min Rain = 0
KSC1 250421Z 03007KT 18/14 A2981 RMK A01 T01830142  RH  077%=      5-min Rain = 0
KSC1 250422Z 03007KT 18/14 A2981 RMK A01 T01830141  RH  076%=      5-min Rain = 0
KSC1 250423Z 03005KT 18/14 A2981 RMK A01 T01840141  RH  076%=      5-min Rain = 0
KSC1 250424Z 04004KT 18/14 A2981 RMK A01 T01840142  RH  077%=      5-min Rain = 0
KSC1 250425Z 05003KT 18/14 A2981 RMK A01 T01830144  RH  078%=      5-min Rain = 0
KSC1 250426Z 06004KT 18/14 A2981 RMK A01 T01830144  RH  078%=      5-min Rain = 0
KSC1 250427Z 07004KT 18/15 A2981 RMK A01 T01820145  RH  079%=      5-min Rain = 0
KSC1 250428Z 08003KT 18/15 A2981 RMK A01 T01810148  RH  081%=      5-min Rain = 0
KSC1 250429Z 09005KT 18/15 A2981 RMK A01 T01800149  RH  082%=      5-min Rain = 0
KSC1 250430Z 09005KT 18/15 A2981 RMK A01 T01790149  RH  082%=      5-min Rain = 0
KSC1 250431Z 09006KT 18/15 A2982 RMK A01 T01790150  RH  083%=      5-min Rain = 0
KSC1 250432Z 09007KT 18/15 A2982 RMK A01 T01790150  RH  083%=      5-min Rain = 0
KSC1 250433Z 09006KT 18/15 A2983 RMK A01 T01790150  RH  083%=      5-min Rain = 0
KSC1 250434Z 09007KT 18/15 A2982 RMK A01 T01790149  RH  083%=      5-min Rain = 0
KSC1 250435Z 08008KT 18/15 A2982 RMK A01 T01790146  RH  081%=      5-min Rain = 0
KSC1 250436Z 08010G15KT 18/14 A2982 RMK A01 T01800144  RH  079%=      5-min Rain = 0
KSC1 250437Z 08009KT 18/14 A2982 RMK A01 T01820143  RH  078%=      5-min Rain = 0
KSC1 250438Z 08007KT 18/15 A2982 RMK A01 T01830145  RH  078%=      5-min Rain = 0
KSC1 250439Z 08008KT 18/15 A2982 RMK A01 T01830145  RH  079%=      5-min Rain = 0
KSC1 250440Z 08007KT 18/15 A2982 RMK A01 T01820145  RH  079%=      5-min Rain = 0
KSC1 250441Z 08006G11KT 18/15 A2982 RMK A01 T01820148  RH  081%=      5-min Rain = 0
KSC1 250442Z 08009KT 18/15 A2982 RMK A01 T01810147  RH  080%=      5-min Rain = 0
KSC1 250443Z 09012KT 18/15 A2982 RMK A01 T01810145  RH  079%=      5-min Rain = 0
KSC1 250444Z 08011KT 18/14 A2982 RMK A01 T01820144  RH  079%=      5-min Rain = 0
KSC1 250445Z 09011KT 18/14 A2982 RMK A01 T01820144  RH  078%=      5-min Rain = 0
KSC1 250446Z 08009KT 18/14 A2983 RMK A01 T01820144  RH  078%=      5-min Rain = 0
KSC1 250447Z 08009KT 18/14 A2983 RMK A01 T01820144  RH  078%=      5-min Rain = 0
KSC1 250448Z 08008KT 18/15 A2983 RMK A01 T01820147  RH  080%=      5-min Rain = 0
KSC1 250449Z 09008KT 18/15 A2983 RMK A01 T01810146  RH  080%=      5-min Rain = 0
KSC1 250450Z 10010KT 18/15 A2983 RMK A01 T01810147  RH  081%=      5-min Rain = 0
KSC1 250451Z 10010KT 18/15 A2983 RMK A01 T01810147  RH  081%=      5-min Rain = 0
KSC1 250452Z 10010KT 18/15 A2983 RMK A01 T01800148  RH  081%=      5-min Rain = 0
KSC1 250453Z 10009KT 18/15 A2983 RMK A01 T01800150  RH  082%=      5-min Rain = 0
KSC1 250454Z 10010KT 18/15 A2983 RMK A01 T01800150  RH  083%=      5-min Rain = 0
KSC1 250455Z 09010KT 18/15 A2983 RMK A01 T01790150  RH  083%=      5-min Rain = 0
KSC1 250456Z 10008KT 18/15 A2983 RMK A01 T01790152  RH  084%=      5-min Rain = 0
KSC1 250457Z 09007G13KT 18/15 A2983 RMK A01 T01780153  RH  085%=      5-min Rain = 0
KSC1 250458Z 09010KT 18/15 A2983 RMK A01 T01780152  RH  085%=      5-min Rain = 0
KSC1 250459Z 09008KT 18/15 A2983 RMK A01 T01780152  RH  085%=      5-min Rain = 0

Page generated in 0.1464 seconds.